<?xml version="1.0" encoding="UTF-8" standalone="no" ?>
<gpx xmlns="http://www.topografix.com/GPX/1/1" xmlns:xsi="http://www.w3.org/2001/XMLSchema-instance" xsi:schemaLocation="http://www.topografix.com/GPX/1/1 http://www.topografix.com/GPX/1/1/gpx.xsd" version="1.1" creator="VisuGPX - https://www.visugpx.com">
  <metadata>
    <name>Foire des agnelles - tour familial</name>
    <desc><![CDATA[Foire des agnelles à Mens - Tour familial]]></desc>
  </metadata>
  <wpt lat="44.81482" lon="5.74907">
    <ele>769</ele>
    <name><![CDATA[Tour trièves familial]]></name>
    <type><![CDATA[Generic]]></type>
  </wpt>
  <trk>
    <name><![CDATA[Tour trièves familial on edp-parcours.com]]></name>
    <trkseg>
      <trkpt lat="44.81482" lon="5.74907">
        <ele>769</ele>
        <time>2017-08-10T08:18:16Z</time>
      </trkpt>
      <trkpt lat="44.81509" lon="5.7487">
        <ele>769</ele>
        <time>2017-08-10T08:18:29Z</time>
      </trkpt>
      <trkpt lat="44.8153" lon="5.74851">
        <ele>769</ele>
        <time>2017-08-10T08:18:32Z</time>
      </trkpt>
      <trkpt lat="44.81542" lon="5.74842">
        <ele>770</ele>
        <time>2017-08-10T08:18:45Z</time>
      </trkpt>
      <trkpt lat="44.81566" lon="5.74828">
        <ele>770</ele>
        <time>2017-08-10T08:18:55Z</time>
      </trkpt>
      <trkpt lat="44.81588" lon="5.74816">
        <ele>770</ele>
        <time>2017-08-10T08:19:09Z</time>
      </trkpt>
      <trkpt lat="44.81597" lon="5.74814">
        <ele>770</ele>
        <time>2017-08-10T08:19:18Z</time>
      </trkpt>
      <trkpt lat="44.81615" lon="5.74814">
        <ele>770</ele>
        <time>2017-08-10T08:19:29Z</time>
      </trkpt>
      <trkpt lat="44.81653" lon="5.74811">
        <ele>769</ele>
        <time>2017-08-10T08:19:47Z</time>
      </trkpt>
      <trkpt lat="44.81668" lon="5.74808">
        <ele>767</ele>
        <time>2017-08-10T08:20:03Z</time>
      </trkpt>
      <trkpt lat="44.81667" lon="5.74794">
        <ele>767</ele>
        <time>2017-08-10T08:20:22Z</time>
      </trkpt>
      <trkpt lat="44.81665" lon="5.74777">
        <ele>769</ele>
        <time>2017-08-10T08:20:32Z</time>
      </trkpt>
      <trkpt lat="44.81657" lon="5.74709">
        <ele>767</ele>
        <time>2017-08-10T08:20:51Z</time>
      </trkpt>
      <trkpt lat="44.81648" lon="5.746">
        <ele>764</ele>
        <time>2017-08-10T08:20:58Z</time>
      </trkpt>
      <trkpt lat="44.81641" lon="5.74498">
        <ele>758</ele>
        <time>2017-08-10T08:21:07Z</time>
      </trkpt>
      <trkpt lat="44.81642" lon="5.74479">
        <ele>758</ele>
        <time>2017-08-10T08:21:10Z</time>
      </trkpt>
      <trkpt lat="44.81649" lon="5.74448">
        <ele>756</ele>
        <time>2017-08-10T08:21:30Z</time>
      </trkpt>
      <trkpt lat="44.8166" lon="5.74425">
        <ele>754</ele>
        <time>2017-08-10T08:21:45Z</time>
      </trkpt>
      <trkpt lat="44.8167" lon="5.7441">
        <ele>752</ele>
        <time>2017-08-10T08:21:48Z</time>
      </trkpt>
      <trkpt lat="44.81684" lon="5.74392">
        <ele>750</ele>
        <time>2017-08-10T08:21:51Z</time>
      </trkpt>
      <trkpt lat="44.81707" lon="5.74374">
        <ele>749</ele>
        <time>2017-08-10T08:22:00Z</time>
      </trkpt>
      <trkpt lat="44.81722" lon="5.74367">
        <ele>749</ele>
        <time>2017-08-10T08:22:10Z</time>
      </trkpt>
      <trkpt lat="44.8173" lon="5.74366">
        <ele>749</ele>
        <time>2017-08-10T08:22:13Z</time>
      </trkpt>
      <trkpt lat="44.81756" lon="5.7437">
        <ele>748</ele>
        <time>2017-08-10T08:22:21Z</time>
      </trkpt>
      <trkpt lat="44.81819" lon="5.7439">
        <ele>747</ele>
        <time>2017-08-10T08:22:34Z</time>
      </trkpt>
      <trkpt lat="44.81835" lon="5.7439">
        <ele>750</ele>
        <time>2017-08-10T08:22:42Z</time>
      </trkpt>
      <trkpt lat="44.8187" lon="5.74384">
        <ele>751</ele>
        <time>2017-08-10T08:22:59Z</time>
      </trkpt>
      <trkpt lat="44.81889" lon="5.74379">
        <ele>753</ele>
        <time>2017-08-10T08:23:14Z</time>
      </trkpt>
      <trkpt lat="44.819" lon="5.74368">
        <ele>754</ele>
        <time>2017-08-10T08:23:19Z</time>
      </trkpt>
      <trkpt lat="44.81907" lon="5.74352">
        <ele>756</ele>
        <time>2017-08-10T08:23:37Z</time>
      </trkpt>
      <trkpt lat="44.81907" lon="5.74325">
        <ele>758</ele>
        <time>2017-08-10T08:23:50Z</time>
      </trkpt>
      <trkpt lat="44.81898" lon="5.74292">
        <ele>757</ele>
        <time>2017-08-10T08:23:52Z</time>
      </trkpt>
      <trkpt lat="44.81889" lon="5.74268">
        <ele>757</ele>
        <time>2017-08-10T08:24:02Z</time>
      </trkpt>
      <trkpt lat="44.81881" lon="5.74245">
        <ele>757</ele>
        <time>2017-08-10T08:24:16Z</time>
      </trkpt>
      <trkpt lat="44.81881" lon="5.74222">
        <ele>757</ele>
        <time>2017-08-10T08:24:25Z</time>
      </trkpt>
      <trkpt lat="44.81891" lon="5.74201">
        <ele>757</ele>
        <time>2017-08-10T08:24:45Z</time>
      </trkpt>
      <trkpt lat="44.81906" lon="5.74181">
        <ele>759</ele>
        <time>2017-08-10T08:24:56Z</time>
      </trkpt>
      <trkpt lat="44.81929" lon="5.74149">
        <ele>765</ele>
        <time>2017-08-10T08:25:16Z</time>
      </trkpt>
      <trkpt lat="44.81959" lon="5.74107">
        <ele>767</ele>
        <time>2017-08-10T08:25:23Z</time>
      </trkpt>
      <trkpt lat="44.81972" lon="5.74078">
        <ele>765</ele>
        <time>2017-08-10T08:25:33Z</time>
      </trkpt>
      <trkpt lat="44.81978" lon="5.74054">
        <ele>765</ele>
        <time>2017-08-10T08:25:46Z</time>
      </trkpt>
      <trkpt lat="44.81986" lon="5.73987">
        <ele>766</ele>
        <time>2017-08-10T08:26:00Z</time>
      </trkpt>
      <trkpt lat="44.8199" lon="5.73959">
        <ele>764</ele>
        <time>2017-08-10T08:26:12Z</time>
      </trkpt>
      <trkpt lat="44.81997" lon="5.73932">
        <ele>766</ele>
        <time>2017-08-10T08:26:25Z</time>
      </trkpt>
      <trkpt lat="44.82014" lon="5.73898">
        <ele>771</ele>
        <time>2017-08-10T08:26:36Z</time>
      </trkpt>
      <trkpt lat="44.82034" lon="5.73877">
        <ele>773</ele>
        <time>2017-08-10T08:26:55Z</time>
      </trkpt>
      <trkpt lat="44.82036" lon="5.73868">
        <ele>773</ele>
        <time>2017-08-10T08:27:13Z</time>
      </trkpt>
      <trkpt lat="44.82043" lon="5.73858">
        <ele>773</ele>
        <time>2017-08-10T08:27:17Z</time>
      </trkpt>
      <trkpt lat="44.82053" lon="5.73843">
        <ele>773</ele>
        <time>2017-08-10T08:27:24Z</time>
      </trkpt>
      <trkpt lat="44.82063" lon="5.73829">
        <ele>771</ele>
        <time>2017-08-10T08:27:33Z</time>
      </trkpt>
      <trkpt lat="44.82084" lon="5.738">
        <ele>772</ele>
        <time>2017-08-10T08:27:46Z</time>
      </trkpt>
      <trkpt lat="44.82108" lon="5.73766">
        <ele>771</ele>
        <time>2017-08-10T08:27:59Z</time>
      </trkpt>
      <trkpt lat="44.82121" lon="5.73746">
        <ele>768</ele>
        <time>2017-08-10T08:28:06Z</time>
      </trkpt>
      <trkpt lat="44.82134" lon="5.73723">
        <ele>768</ele>
        <time>2017-08-10T08:28:17Z</time>
      </trkpt>
      <trkpt lat="44.82145" lon="5.73699">
        <ele>768</ele>
        <time>2017-08-10T08:28:32Z</time>
      </trkpt>
      <trkpt lat="44.82155" lon="5.73666">
        <ele>767</ele>
        <time>2017-08-10T08:28:38Z</time>
      </trkpt>
      <trkpt lat="44.82168" lon="5.73625">
        <ele>768</ele>
        <time>2017-08-10T08:28:41Z</time>
      </trkpt>
      <trkpt lat="44.82183" lon="5.73574">
        <ele>766</ele>
        <time>2017-08-10T08:28:44Z</time>
      </trkpt>
      <trkpt lat="44.82207" lon="5.73495">
        <ele>765</ele>
        <time>2017-08-10T08:28:56Z</time>
      </trkpt>
      <trkpt lat="44.82212" lon="5.73471">
        <ele>766</ele>
        <time>2017-08-10T08:29:04Z</time>
      </trkpt>
      <trkpt lat="44.82218" lon="5.73404">
        <ele>765</ele>
        <time>2017-08-10T08:29:22Z</time>
      </trkpt>
      <trkpt lat="44.82231" lon="5.73274">
        <ele>767</ele>
        <time>2017-08-10T08:29:24Z</time>
      </trkpt>
      <trkpt lat="44.82244" lon="5.73133">
        <ele>767</ele>
        <time>2017-08-10T08:29:37Z</time>
      </trkpt>
      <trkpt lat="44.82244" lon="5.73088">
        <ele>769</ele>
        <time>2017-08-10T08:29:53Z</time>
      </trkpt>
      <trkpt lat="44.82241" lon="5.73045">
        <ele>767</ele>
        <time>2017-08-10T08:29:58Z</time>
      </trkpt>
      <trkpt lat="44.82219" lon="5.72916">
        <ele>774</ele>
        <time>2017-08-10T08:30:10Z</time>
      </trkpt>
      <trkpt lat="44.82211" lon="5.72878">
        <ele>774</ele>
        <time>2017-08-10T08:30:15Z</time>
      </trkpt>
      <trkpt lat="44.82205" lon="5.72864">
        <ele>774</ele>
        <time>2017-08-10T08:30:22Z</time>
      </trkpt>
      <trkpt lat="44.82196" lon="5.72851">
        <ele>774</ele>
        <time>2017-08-10T08:30:39Z</time>
      </trkpt>
      <trkpt lat="44.82173" lon="5.7283">
        <ele>774</ele>
        <time>2017-08-10T08:30:49Z</time>
      </trkpt>
      <trkpt lat="44.82148" lon="5.72815">
        <ele>773</ele>
        <time>2017-08-10T08:31:08Z</time>
      </trkpt>
      <trkpt lat="44.82111" lon="5.72805">
        <ele>773</ele>
        <time>2017-08-10T08:31:21Z</time>
      </trkpt>
      <trkpt lat="44.82085" lon="5.72796">
        <ele>773</ele>
        <time>2017-08-10T08:31:30Z</time>
      </trkpt>
      <trkpt lat="44.82041" lon="5.72777">
        <ele>770</ele>
        <time>2017-08-10T08:31:46Z</time>
      </trkpt>
      <trkpt lat="44.82" lon="5.72757">
        <ele>773</ele>
        <time>2017-08-10T08:32:03Z</time>
      </trkpt>
      <trkpt lat="44.81979" lon="5.7274">
        <ele>775</ele>
        <time>2017-08-10T08:32:22Z</time>
      </trkpt>
      <trkpt lat="44.81953" lon="5.72717">
        <ele>775</ele>
        <time>2017-08-10T08:32:27Z</time>
      </trkpt>
      <trkpt lat="44.81933" lon="5.72689">
        <ele>777</ele>
        <time>2017-08-10T08:32:37Z</time>
      </trkpt>
      <trkpt lat="44.81892" lon="5.72631">
        <ele>781</ele>
        <time>2017-08-10T08:32:57Z</time>
      </trkpt>
      <trkpt lat="44.81862" lon="5.72598">
        <ele>780</ele>
        <time>2017-08-10T08:33:06Z</time>
      </trkpt>
      <trkpt lat="44.8183" lon="5.72567">
        <ele>773</ele>
        <time>2017-08-10T08:33:14Z</time>
      </trkpt>
      <trkpt lat="44.81818" lon="5.72554">
        <ele>771</ele>
        <time>2017-08-10T08:33:27Z</time>
      </trkpt>
      <trkpt lat="44.81811" lon="5.72543">
        <ele>771</ele>
        <time>2017-08-10T08:33:31Z</time>
      </trkpt>
      <trkpt lat="44.81806" lon="5.72531">
        <ele>771</ele>
        <time>2017-08-10T08:33:43Z</time>
      </trkpt>
      <trkpt lat="44.81806" lon="5.72521">
        <ele>772</ele>
        <time>2017-08-10T08:33:47Z</time>
      </trkpt>
      <trkpt lat="44.81815" lon="5.72494">
        <ele>778</ele>
        <time>2017-08-10T08:34:00Z</time>
      </trkpt>
      <trkpt lat="44.81823" lon="5.72452">
        <ele>774</ele>
        <time>2017-08-10T08:34:11Z</time>
      </trkpt>
      <trkpt lat="44.81833" lon="5.72406">
        <ele>777</ele>
        <time>2017-08-10T08:34:29Z</time>
      </trkpt>
      <trkpt lat="44.81844" lon="5.72371">
        <ele>792</ele>
        <time>2017-08-10T08:34:45Z</time>
      </trkpt>
      <trkpt lat="44.81846" lon="5.72362">
        <ele>792</ele>
        <time>2017-08-10T08:35:01Z</time>
      </trkpt>
      <trkpt lat="44.81848" lon="5.72346">
        <ele>790</ele>
        <time>2017-08-10T08:35:18Z</time>
      </trkpt>
      <trkpt lat="44.81846" lon="5.72324">
        <ele>791</ele>
        <time>2017-08-10T08:35:27Z</time>
      </trkpt>
      <trkpt lat="44.81841" lon="5.72294">
        <ele>795</ele>
        <time>2017-08-10T08:35:39Z</time>
      </trkpt>
      <trkpt lat="44.81836" lon="5.7227">
        <ele>795</ele>
        <time>2017-08-10T08:35:50Z</time>
      </trkpt>
      <trkpt lat="44.81828" lon="5.72251">
        <ele>787</ele>
        <time>2017-08-10T08:35:57Z</time>
      </trkpt>
      <trkpt lat="44.81819" lon="5.72232">
        <ele>785</ele>
        <time>2017-08-10T08:36:15Z</time>
      </trkpt>
      <trkpt lat="44.81809" lon="5.72218">
        <ele>783</ele>
        <time>2017-08-10T08:36:34Z</time>
      </trkpt>
      <trkpt lat="44.81797" lon="5.7219">
        <ele>783</ele>
        <time>2017-08-10T08:36:54Z</time>
      </trkpt>
      <trkpt lat="44.81795" lon="5.72167">
        <ele>783</ele>
        <time>2017-08-10T08:37:08Z</time>
      </trkpt>
      <trkpt lat="44.81796" lon="5.72143">
        <ele>795</ele>
        <time>2017-08-10T08:37:28Z</time>
      </trkpt>
      <trkpt lat="44.81794" lon="5.72126">
        <ele>796</ele>
        <time>2017-08-10T08:37:32Z</time>
      </trkpt>
      <trkpt lat="44.81788" lon="5.72114">
        <ele>796</ele>
        <time>2017-08-10T08:37:39Z</time>
      </trkpt>
      <trkpt lat="44.81772" lon="5.72095">
        <ele>794</ele>
        <time>2017-08-10T08:37:42Z</time>
      </trkpt>
      <trkpt lat="44.8175" lon="5.7206">
        <ele>804</ele>
        <time>2017-08-10T08:37:56Z</time>
      </trkpt>
      <trkpt lat="44.81726" lon="5.72026">
        <ele>788</ele>
        <time>2017-08-10T08:38:06Z</time>
      </trkpt>
      <trkpt lat="44.81718" lon="5.72009">
        <ele>788</ele>
        <time>2017-08-10T08:38:09Z</time>
      </trkpt>
      <trkpt lat="44.81713" lon="5.71991">
        <ele>798</ele>
        <time>2017-08-10T08:38:20Z</time>
      </trkpt>
      <trkpt lat="44.81702" lon="5.71957">
        <ele>796</ele>
        <time>2017-08-10T08:38:32Z</time>
      </trkpt>
      <trkpt lat="44.81694" lon="5.7194">
        <ele>795</ele>
        <time>2017-08-10T08:38:46Z</time>
      </trkpt>
      <trkpt lat="44.8169" lon="5.71925">
        <ele>794</ele>
        <time>2017-08-10T08:39:01Z</time>
      </trkpt>
      <trkpt lat="44.8169" lon="5.71886">
        <ele>796</ele>
        <time>2017-08-10T08:39:18Z</time>
      </trkpt>
      <trkpt lat="44.81694" lon="5.71862">
        <ele>797</ele>
        <time>2017-08-10T08:39:34Z</time>
      </trkpt>
      <trkpt lat="44.817" lon="5.71835">
        <ele>797</ele>
        <time>2017-08-10T08:39:42Z</time>
      </trkpt>
      <trkpt lat="44.81718" lon="5.71767">
        <ele>799</ele>
        <time>2017-08-10T08:39:46Z</time>
      </trkpt>
      <trkpt lat="44.8172" lon="5.71751">
        <ele>799</ele>
        <time>2017-08-10T08:40:02Z</time>
      </trkpt>
      <trkpt lat="44.8172" lon="5.71738">
        <ele>801</ele>
        <time>2017-08-10T08:40:17Z</time>
      </trkpt>
      <trkpt lat="44.81712" lon="5.71702">
        <ele>801</ele>
        <time>2017-08-10T08:40:34Z</time>
      </trkpt>
      <trkpt lat="44.81705" lon="5.71663">
        <ele>806</ele>
        <time>2017-08-10T08:40:47Z</time>
      </trkpt>
      <trkpt lat="44.81693" lon="5.71618">
        <ele>807</ele>
        <time>2017-08-10T08:40:51Z</time>
      </trkpt>
      <trkpt lat="44.81686" lon="5.71601">
        <ele>807</ele>
        <time>2017-08-10T08:40:59Z</time>
      </trkpt>
      <trkpt lat="44.81676" lon="5.71588">
        <ele>806</ele>
        <time>2017-08-10T08:41:02Z</time>
      </trkpt>
      <trkpt lat="44.81662" lon="5.71577">
        <ele>803</ele>
        <time>2017-08-10T08:41:19Z</time>
      </trkpt>
      <trkpt lat="44.81643" lon="5.71566">
        <ele>801</ele>
        <time>2017-08-10T08:41:35Z</time>
      </trkpt>
      <trkpt lat="44.81631" lon="5.71557">
        <ele>800</ele>
        <time>2017-08-10T08:41:40Z</time>
      </trkpt>
      <trkpt lat="44.81627" lon="5.71547">
        <ele>799</ele>
        <time>2017-08-10T08:41:51Z</time>
      </trkpt>
      <trkpt lat="44.81627" lon="5.71533">
        <ele>799</ele>
        <time>2017-08-10T08:42:09Z</time>
      </trkpt>
      <trkpt lat="44.81632" lon="5.71514">
        <ele>800</ele>
        <time>2017-08-10T08:42:14Z</time>
      </trkpt>
      <trkpt lat="44.8166" lon="5.71452">
        <ele>795</ele>
        <time>2017-08-10T08:42:22Z</time>
      </trkpt>
      <trkpt lat="44.8167" lon="5.71436">
        <ele>802</ele>
        <time>2017-08-10T08:42:29Z</time>
      </trkpt>
      <trkpt lat="44.81679" lon="5.71426">
        <ele>801</ele>
        <time>2017-08-10T08:42:47Z</time>
      </trkpt>
      <trkpt lat="44.81698" lon="5.71407">
        <ele>800</ele>
        <time>2017-08-10T08:43:06Z</time>
      </trkpt>
      <trkpt lat="44.8171" lon="5.71373">
        <ele>801</ele>
        <time>2017-08-10T08:43:22Z</time>
      </trkpt>
      <trkpt lat="44.81722" lon="5.71323">
        <ele>801</ele>
        <time>2017-08-10T08:43:32Z</time>
      </trkpt>
      <trkpt lat="44.81721" lon="5.7131">
        <ele>801</ele>
        <time>2017-08-10T08:43:35Z</time>
      </trkpt>
      <trkpt lat="44.81716" lon="5.71289">
        <ele>801</ele>
        <time>2017-08-10T08:43:54Z</time>
      </trkpt>
      <trkpt lat="44.81707" lon="5.71267">
        <ele>801</ele>
        <time>2017-08-10T08:44:06Z</time>
      </trkpt>
      <trkpt lat="44.81694" lon="5.71245">
        <ele>804</ele>
        <time>2017-08-10T08:44:13Z</time>
      </trkpt>
      <trkpt lat="44.81675" lon="5.71223">
        <ele>805</ele>
        <time>2017-08-10T08:44:27Z</time>
      </trkpt>
      <trkpt lat="44.81647" lon="5.71208">
        <ele>798</ele>
        <time>2017-08-10T08:44:38Z</time>
      </trkpt>
      <trkpt lat="44.81592" lon="5.7118">
        <ele>796</ele>
        <time>2017-08-10T08:44:46Z</time>
      </trkpt>
      <trkpt lat="44.81565" lon="5.71166">
        <ele>793</ele>
        <time>2017-08-10T08:44:58Z</time>
      </trkpt>
      <trkpt lat="44.81547" lon="5.7115">
        <ele>789</ele>
        <time>2017-08-10T08:45:15Z</time>
      </trkpt>
      <trkpt lat="44.81536" lon="5.71136">
        <ele>788</ele>
        <time>2017-08-10T08:45:25Z</time>
      </trkpt>
      <trkpt lat="44.81526" lon="5.71117">
        <ele>788</ele>
        <time>2017-08-10T08:45:42Z</time>
      </trkpt>
      <trkpt lat="44.81517" lon="5.71095">
        <ele>788</ele>
        <time>2017-08-10T08:45:54Z</time>
      </trkpt>
      <trkpt lat="44.81512" lon="5.71072">
        <ele>790</ele>
        <time>2017-08-10T08:45:57Z</time>
      </trkpt>
      <trkpt lat="44.8151" lon="5.71042">
        <ele>793</ele>
        <time>2017-08-10T08:46:13Z</time>
      </trkpt>
      <trkpt lat="44.81511" lon="5.71015">
        <ele>791</ele>
        <time>2017-08-10T08:46:24Z</time>
      </trkpt>
      <trkpt lat="44.81512" lon="5.70967">
        <ele>793</ele>
        <time>2017-08-10T08:46:41Z</time>
      </trkpt>
      <trkpt lat="44.81516" lon="5.7089">
        <ele>790</ele>
        <time>2017-08-10T08:46:58Z</time>
      </trkpt>
      <trkpt lat="44.81528" lon="5.70746">
        <ele>783</ele>
        <time>2017-08-10T08:47:08Z</time>
      </trkpt>
      <trkpt lat="44.81525" lon="5.70704">
        <ele>783</ele>
        <time>2017-08-10T08:47:15Z</time>
      </trkpt>
      <trkpt lat="44.81517" lon="5.70674">
        <ele>780</ele>
        <time>2017-08-10T08:47:27Z</time>
      </trkpt>
      <trkpt lat="44.81496" lon="5.7065">
        <ele>768</ele>
        <time>2017-08-10T08:47:31Z</time>
      </trkpt>
      <trkpt lat="44.81475" lon="5.70627">
        <ele>762</ele>
        <time>2017-08-10T08:47:50Z</time>
      </trkpt>
      <trkpt lat="44.81472" lon="5.70615">
        <ele>762</ele>
        <time>2017-08-10T08:48:08Z</time>
      </trkpt>
      <trkpt lat="44.81474" lon="5.70605">
        <ele>762</ele>
        <time>2017-08-10T08:48:24Z</time>
      </trkpt>
      <trkpt lat="44.81485" lon="5.70591">
        <ele>765</ele>
        <time>2017-08-10T08:48:29Z</time>
      </trkpt>
      <trkpt lat="44.81505" lon="5.70574">
        <ele>769</ele>
        <time>2017-08-10T08:48:45Z</time>
      </trkpt>
      <trkpt lat="44.81579" lon="5.70512">
        <ele>766</ele>
        <time>2017-08-10T08:48:53Z</time>
      </trkpt>
      <trkpt lat="44.8159" lon="5.70495">
        <ele>764</ele>
        <time>2017-08-10T08:49:11Z</time>
      </trkpt>
      <trkpt lat="44.81595" lon="5.7048">
        <ele>763</ele>
        <time>2017-08-10T08:49:17Z</time>
      </trkpt>
      <trkpt lat="44.81599" lon="5.70435">
        <ele>761</ele>
        <time>2017-08-10T08:49:29Z</time>
      </trkpt>
      <trkpt lat="44.81593" lon="5.70389">
        <ele>758</ele>
        <time>2017-08-10T08:49:44Z</time>
      </trkpt>
      <trkpt lat="44.81587" lon="5.70361">
        <ele>758</ele>
        <time>2017-08-10T08:49:53Z</time>
      </trkpt>
      <trkpt lat="44.81571" lon="5.70308">
        <ele>752</ele>
        <time>2017-08-10T08:50:05Z</time>
      </trkpt>
      <trkpt lat="44.81562" lon="5.70264">
        <ele>751</ele>
        <time>2017-08-10T08:50:18Z</time>
      </trkpt>
      <trkpt lat="44.81562" lon="5.70231">
        <ele>747</ele>
        <time>2017-08-10T08:50:29Z</time>
      </trkpt>
      <trkpt lat="44.81573" lon="5.7017">
        <ele>746</ele>
        <time>2017-08-10T08:50:47Z</time>
      </trkpt>
      <trkpt lat="44.81578" lon="5.70145">
        <ele>740</ele>
        <time>2017-08-10T08:51:04Z</time>
      </trkpt>
      <trkpt lat="44.81582" lon="5.70141">
        <ele>739</ele>
        <time>2017-08-10T08:51:17Z</time>
      </trkpt>
      <trkpt lat="44.81587" lon="5.70141">
        <ele>737</ele>
        <time>2017-08-10T08:51:25Z</time>
      </trkpt>
      <trkpt lat="44.81592" lon="5.70144">
        <ele>737</ele>
        <time>2017-08-10T08:51:37Z</time>
      </trkpt>
      <trkpt lat="44.81621" lon="5.70212">
        <ele>743</ele>
        <time>2017-08-10T08:51:39Z</time>
      </trkpt>
      <trkpt lat="44.81644" lon="5.70268">
        <ele>749</ele>
        <time>2017-08-10T08:51:57Z</time>
      </trkpt>
      <trkpt lat="44.81659" lon="5.70297">
        <ele>751</ele>
        <time>2017-08-10T08:52:14Z</time>
      </trkpt>
      <trkpt lat="44.8167" lon="5.70322">
        <ele>744</ele>
        <time>2017-08-10T08:52:20Z</time>
      </trkpt>
      <trkpt lat="44.81687" lon="5.70382">
        <ele>742</ele>
        <time>2017-08-10T08:52:28Z</time>
      </trkpt>
      <trkpt lat="44.81699" lon="5.70427">
        <ele>749</ele>
        <time>2017-08-10T08:52:46Z</time>
      </trkpt>
      <trkpt lat="44.81709" lon="5.70453">
        <ele>748</ele>
        <time>2017-08-10T08:52:58Z</time>
      </trkpt>
      <trkpt lat="44.81718" lon="5.70466">
        <ele>748</ele>
        <time>2017-08-10T08:53:17Z</time>
      </trkpt>
      <trkpt lat="44.81733" lon="5.70473">
        <ele>746</ele>
        <time>2017-08-10T08:53:28Z</time>
      </trkpt>
      <trkpt lat="44.81749" lon="5.70484">
        <ele>745</ele>
        <time>2017-08-10T08:53:45Z</time>
      </trkpt>
      <trkpt lat="44.81763" lon="5.70501">
        <ele>744</ele>
        <time>2017-08-10T08:53:57Z</time>
      </trkpt>
      <trkpt lat="44.81782" lon="5.70518">
        <ele>743</ele>
        <time>2017-08-10T08:54:14Z</time>
      </trkpt>
      <trkpt lat="44.81805" lon="5.70532">
        <ele>742</ele>
        <time>2017-08-10T08:54:32Z</time>
      </trkpt>
      <trkpt lat="44.81819" lon="5.7054">
        <ele>742</ele>
        <time>2017-08-10T08:54:47Z</time>
      </trkpt>
      <trkpt lat="44.81827" lon="5.70542">
        <ele>742</ele>
        <time>2017-08-10T08:54:58Z</time>
      </trkpt>
      <trkpt lat="44.81835" lon="5.70541">
        <ele>736</ele>
        <time>2017-08-10T08:55:18Z</time>
      </trkpt>
      <trkpt lat="44.81843" lon="5.70534">
        <ele>735</ele>
        <time>2017-08-10T08:55:35Z</time>
      </trkpt>
      <trkpt lat="44.81856" lon="5.70515">
        <ele>733</ele>
        <time>2017-08-10T08:55:53Z</time>
      </trkpt>
      <trkpt lat="44.81865" lon="5.70504">
        <ele>732</ele>
        <time>2017-08-10T08:55:57Z</time>
      </trkpt>
      <trkpt lat="44.81878" lon="5.70499">
        <ele>721</ele>
        <time>2017-08-10T08:56:15Z</time>
      </trkpt>
      <trkpt lat="44.81892" lon="5.70498">
        <ele>722</ele>
        <time>2017-08-10T08:56:23Z</time>
      </trkpt>
      <trkpt lat="44.81934" lon="5.70495">
        <ele>724</ele>
        <time>2017-08-10T08:56:31Z</time>
      </trkpt>
      <trkpt lat="44.81981" lon="5.70491">
        <ele>727</ele>
        <time>2017-08-10T08:56:44Z</time>
      </trkpt>
      <trkpt lat="44.81988" lon="5.70487">
        <ele>727</ele>
        <time>2017-08-10T08:56:57Z</time>
      </trkpt>
      <trkpt lat="44.81992" lon="5.70482">
        <ele>727</ele>
        <time>2017-08-10T08:57:06Z</time>
      </trkpt>
      <trkpt lat="44.81994" lon="5.70472">
        <ele>726</ele>
        <time>2017-08-10T08:57:12Z</time>
      </trkpt>
      <trkpt lat="44.81989" lon="5.70445">
        <ele>724</ele>
        <time>2017-08-10T08:57:25Z</time>
      </trkpt>
      <trkpt lat="44.81987" lon="5.70423">
        <ele>724</ele>
        <time>2017-08-10T08:57:32Z</time>
      </trkpt>
      <trkpt lat="44.81987" lon="5.70409">
        <ele>722</ele>
        <time>2017-08-10T08:57:34Z</time>
      </trkpt>
      <trkpt lat="44.81976" lon="5.70378">
        <ele>721</ele>
        <time>2017-08-10T08:57:50Z</time>
      </trkpt>
      <trkpt lat="44.81961" lon="5.70315">
        <ele>721</ele>
        <time>2017-08-10T08:57:57Z</time>
      </trkpt>
      <trkpt lat="44.81952" lon="5.70279">
        <ele>721</ele>
        <time>2017-08-10T08:58:15Z</time>
      </trkpt>
      <trkpt lat="44.81951" lon="5.70275">
        <ele>721</ele>
        <time>2017-08-10T08:58:20Z</time>
      </trkpt>
      <trkpt lat="44.81949" lon="5.70258">
        <ele>720</ele>
        <time>2017-08-10T08:58:29Z</time>
      </trkpt>
      <trkpt lat="44.81951" lon="5.70245">
        <ele>720</ele>
        <time>2017-08-10T08:58:49Z</time>
      </trkpt>
      <trkpt lat="44.81971" lon="5.70207">
        <ele>721</ele>
        <time>2017-08-10T08:58:52Z</time>
      </trkpt>
      <trkpt lat="44.81983" lon="5.70175">
        <ele>722</ele>
        <time>2017-08-10T08:59:05Z</time>
      </trkpt>
      <trkpt lat="44.8199" lon="5.70137">
        <ele>719</ele>
        <time>2017-08-10T08:59:15Z</time>
      </trkpt>
      <trkpt lat="44.81993" lon="5.70102">
        <ele>718</ele>
        <time>2017-08-10T08:59:25Z</time>
      </trkpt>
      <trkpt lat="44.82" lon="5.70077">
        <ele>722</ele>
        <time>2017-08-10T08:59:40Z</time>
      </trkpt>
      <trkpt lat="44.82006" lon="5.70061">
        <ele>724</ele>
        <time>2017-08-10T08:59:43Z</time>
      </trkpt>
      <trkpt lat="44.82013" lon="5.7003">
        <ele>724</ele>
        <time>2017-08-10T08:59:53Z</time>
      </trkpt>
      <trkpt lat="44.82012" lon="5.69999">
        <ele>718</ele>
        <time>2017-08-10T08:59:59Z</time>
      </trkpt>
      <trkpt lat="44.82" lon="5.69958">
        <ele>722</ele>
        <time>2017-08-10T09:00:07Z</time>
      </trkpt>
      <trkpt lat="44.81984" lon="5.69922">
        <ele>714</ele>
        <time>2017-08-10T09:00:13Z</time>
      </trkpt>
      <trkpt lat="44.81964" lon="5.6989">
        <ele>718</ele>
        <time>2017-08-10T09:00:18Z</time>
      </trkpt>
      <trkpt lat="44.81936" lon="5.69854">
        <ele>717</ele>
        <time>2017-08-10T09:00:21Z</time>
      </trkpt>
      <trkpt lat="44.81904" lon="5.69827">
        <ele>715</ele>
        <time>2017-08-10T09:00:36Z</time>
      </trkpt>
      <trkpt lat="44.81835" lon="5.69782">
        <ele>712</ele>
        <time>2017-08-10T09:00:51Z</time>
      </trkpt>
      <trkpt lat="44.81823" lon="5.69766">
        <ele>703</ele>
        <time>2017-08-10T09:00:57Z</time>
      </trkpt>
      <trkpt lat="44.81812" lon="5.69732">
        <ele>706</ele>
        <time>2017-08-10T09:01:12Z</time>
      </trkpt>
      <trkpt lat="44.818" lon="5.69702">
        <ele>705</ele>
        <time>2017-08-10T09:01:24Z</time>
      </trkpt>
      <trkpt lat="44.81776" lon="5.69664">
        <ele>704</ele>
        <time>2017-08-10T09:01:30Z</time>
      </trkpt>
      <trkpt lat="44.81762" lon="5.6963">
        <ele>703</ele>
        <time>2017-08-10T09:01:43Z</time>
      </trkpt>
      <trkpt lat="44.81763" lon="5.69611">
        <ele>703</ele>
        <time>2017-08-10T09:01:54Z</time>
      </trkpt>
      <trkpt lat="44.81768" lon="5.69602">
        <ele>703</ele>
        <time>2017-08-10T09:02:05Z</time>
      </trkpt>
      <trkpt lat="44.81791" lon="5.69578">
        <ele>702</ele>
        <time>2017-08-10T09:02:16Z</time>
      </trkpt>
      <trkpt lat="44.81804" lon="5.69568">
        <ele>703</ele>
        <time>2017-08-10T09:02:35Z</time>
      </trkpt>
      <trkpt lat="44.81816" lon="5.69564">
        <ele>704</ele>
        <time>2017-08-10T09:02:47Z</time>
      </trkpt>
      <trkpt lat="44.81845" lon="5.6955">
        <ele>710</ele>
        <time>2017-08-10T09:02:51Z</time>
      </trkpt>
      <trkpt lat="44.81857" lon="5.69542">
        <ele>710</ele>
        <time>2017-08-10T09:03:03Z</time>
      </trkpt>
      <trkpt lat="44.81867" lon="5.69529">
        <ele>710</ele>
        <time>2017-08-10T09:03:10Z</time>
      </trkpt>
      <trkpt lat="44.81881" lon="5.69497">
        <ele>708</ele>
        <time>2017-08-10T09:03:16Z</time>
      </trkpt>
      <trkpt lat="44.81888" lon="5.69446">
        <ele>710</ele>
        <time>2017-08-10T09:03:30Z</time>
      </trkpt>
      <trkpt lat="44.81888" lon="5.69414">
        <ele>714</ele>
        <time>2017-08-10T09:03:35Z</time>
      </trkpt>
      <trkpt lat="44.81871" lon="5.69341">
        <ele>713</ele>
        <time>2017-08-10T09:03:54Z</time>
      </trkpt>
      <trkpt lat="44.81865" lon="5.69326">
        <ele>716</ele>
        <time>2017-08-10T09:04:06Z</time>
      </trkpt>
      <trkpt lat="44.81859" lon="5.69318">
        <ele>715</ele>
        <time>2017-08-10T09:04:21Z</time>
      </trkpt>
      <trkpt lat="44.81845" lon="5.69308">
        <ele>714</ele>
        <time>2017-08-10T09:04:40Z</time>
      </trkpt>
      <trkpt lat="44.81812" lon="5.69295">
        <ele>699</ele>
        <time>2017-08-10T09:04:43Z</time>
      </trkpt>
      <trkpt lat="44.81785" lon="5.69298">
        <ele>696</ele>
        <time>2017-08-10T09:04:59Z</time>
      </trkpt>
      <trkpt lat="44.81776" lon="5.69297">
        <ele>695</ele>
        <time>2017-08-10T09:05:05Z</time>
      </trkpt>
      <trkpt lat="44.81764" lon="5.69288">
        <ele>695</ele>
        <time>2017-08-10T09:05:09Z</time>
      </trkpt>
      <trkpt lat="44.81749" lon="5.69274">
        <ele>685</ele>
        <time>2017-08-10T09:05:21Z</time>
      </trkpt>
      <trkpt lat="44.8174" lon="5.69261">
        <ele>687</ele>
        <time>2017-08-10T09:05:38Z</time>
      </trkpt>
      <trkpt lat="44.81739" lon="5.69247">
        <ele>686</ele>
        <time>2017-08-10T09:05:53Z</time>
      </trkpt>
      <trkpt lat="44.81741" lon="5.6924">
        <ele>686</ele>
        <time>2017-08-10T09:06:04Z</time>
      </trkpt>
      <trkpt lat="44.81746" lon="5.69236">
        <ele>686</ele>
        <time>2017-08-10T09:06:22Z</time>
      </trkpt>
      <trkpt lat="44.81758" lon="5.6923">
        <ele>693</ele>
        <time>2017-08-10T09:06:37Z</time>
      </trkpt>
      <trkpt lat="44.81776" lon="5.69225">
        <ele>694</ele>
        <time>2017-08-10T09:06:42Z</time>
      </trkpt>
      <trkpt lat="44.81811" lon="5.6921">
        <ele>697</ele>
        <time>2017-08-10T09:07:01Z</time>
      </trkpt>
      <trkpt lat="44.81826" lon="5.69199">
        <ele>697</ele>
        <time>2017-08-10T09:07:20Z</time>
      </trkpt>
      <trkpt lat="44.8184" lon="5.69184">
        <ele>708</ele>
        <time>2017-08-10T09:07:40Z</time>
      </trkpt>
      <trkpt lat="44.8186" lon="5.69144">
        <ele>703</ele>
        <time>2017-08-10T09:07:43Z</time>
      </trkpt>
      <trkpt lat="44.81874" lon="5.69101">
        <ele>702</ele>
        <time>2017-08-10T09:07:54Z</time>
      </trkpt>
      <trkpt lat="44.81877" lon="5.69064">
        <ele>696</ele>
        <time>2017-08-10T09:07:57Z</time>
      </trkpt>
      <trkpt lat="44.81873" lon="5.68992">
        <ele>690</ele>
        <time>2017-08-10T09:08:09Z</time>
      </trkpt>
      <trkpt lat="44.81873" lon="5.68962">
        <ele>689</ele>
        <time>2017-08-10T09:08:20Z</time>
      </trkpt>
      <trkpt lat="44.81884" lon="5.68943">
        <ele>688</ele>
        <time>2017-08-10T09:08:38Z</time>
      </trkpt>
      <trkpt lat="44.81899" lon="5.68931">
        <ele>687</ele>
        <time>2017-08-10T09:08:41Z</time>
      </trkpt>
      <trkpt lat="44.81914" lon="5.68925">
        <ele>686</ele>
        <time>2017-08-10T09:08:57Z</time>
      </trkpt>
      <trkpt lat="44.81932" lon="5.6892">
        <ele>690</ele>
        <time>2017-08-10T09:09:07Z</time>
      </trkpt>
      <trkpt lat="44.81962" lon="5.6891">
        <ele>686</ele>
        <time>2017-08-10T09:09:20Z</time>
      </trkpt>
      <trkpt lat="44.81976" lon="5.68896">
        <ele>686</ele>
        <time>2017-08-10T09:09:36Z</time>
      </trkpt>
      <trkpt lat="44.81985" lon="5.68882">
        <ele>686</ele>
        <time>2017-08-10T09:09:56Z</time>
      </trkpt>
      <trkpt lat="44.81995" lon="5.68861">
        <ele>684</ele>
        <time>2017-08-10T09:10:10Z</time>
      </trkpt>
      <trkpt lat="44.82003" lon="5.68848">
        <ele>686</ele>
        <time>2017-08-10T09:10:14Z</time>
      </trkpt>
      <trkpt lat="44.8202" lon="5.6884">
        <ele>687</ele>
        <time>2017-08-10T09:10:21Z</time>
      </trkpt>
      <trkpt lat="44.82026" lon="5.68835">
        <ele>688</ele>
        <time>2017-08-10T09:10:27Z</time>
      </trkpt>
      <trkpt lat="44.8204" lon="5.68816">
        <ele>685</ele>
        <time>2017-08-10T09:10:43Z</time>
      </trkpt>
      <trkpt lat="44.82051" lon="5.68782">
        <ele>685</ele>
        <time>2017-08-10T09:10:57Z</time>
      </trkpt>
      <trkpt lat="44.82062" lon="5.68759">
        <ele>686</ele>
        <time>2017-08-10T09:11:06Z</time>
      </trkpt>
      <trkpt lat="44.82124" lon="5.68666">
        <ele>688</ele>
        <time>2017-08-10T09:11:17Z</time>
      </trkpt>
      <trkpt lat="44.8213" lon="5.68658">
        <ele>688</ele>
        <time>2017-08-10T09:11:21Z</time>
      </trkpt>
      <trkpt lat="44.82138" lon="5.68653">
        <ele>688</ele>
        <time>2017-08-10T09:11:31Z</time>
      </trkpt>
      <trkpt lat="44.82173" lon="5.68648">
        <ele>693</ele>
        <time>2017-08-10T09:11:39Z</time>
      </trkpt>
      <trkpt lat="44.82202" lon="5.68644">
        <ele>693</ele>
        <time>2017-08-10T09:11:47Z</time>
      </trkpt>
      <trkpt lat="44.82208" lon="5.68641">
        <ele>693</ele>
        <time>2017-08-10T09:12:00Z</time>
      </trkpt>
      <trkpt lat="44.82221" lon="5.6863">
        <ele>693</ele>
        <time>2017-08-10T09:12:06Z</time>
      </trkpt>
      <trkpt lat="44.82236" lon="5.68604">
        <ele>690</ele>
        <time>2017-08-10T09:12:08Z</time>
      </trkpt>
      <trkpt lat="44.82244" lon="5.68596">
        <ele>689</ele>
        <time>2017-08-10T09:12:18Z</time>
      </trkpt>
      <trkpt lat="44.8225" lon="5.68594">
        <ele>688</ele>
        <time>2017-08-10T09:12:33Z</time>
      </trkpt>
      <trkpt lat="44.82263" lon="5.68601">
        <ele>691</ele>
        <time>2017-08-10T09:12:44Z</time>
      </trkpt>
      <trkpt lat="44.82287" lon="5.68621">
        <ele>694</ele>
        <time>2017-08-10T09:12:47Z</time>
      </trkpt>
      <trkpt lat="44.82308" lon="5.68626">
        <ele>694</ele>
        <time>2017-08-10T09:12:51Z</time>
      </trkpt>
      <trkpt lat="44.82334" lon="5.68625">
        <ele>693</ele>
        <time>2017-08-10T09:13:06Z</time>
      </trkpt>
      <trkpt lat="44.82343" lon="5.68628">
        <ele>694</ele>
        <time>2017-08-10T09:13:13Z</time>
      </trkpt>
      <trkpt lat="44.82365" lon="5.6864">
        <ele>694</ele>
        <time>2017-08-10T09:13:29Z</time>
      </trkpt>
      <trkpt lat="44.8238" lon="5.68647">
        <ele>695</ele>
        <time>2017-08-10T09:13:49Z</time>
      </trkpt>
      <trkpt lat="44.82393" lon="5.68648">
        <ele>695</ele>
        <time>2017-08-10T09:13:52Z</time>
      </trkpt>
      <trkpt lat="44.82406" lon="5.68644">
        <ele>695</ele>
        <time>2017-08-10T09:14:12Z</time>
      </trkpt>
      <trkpt lat="44.82433" lon="5.68629">
        <ele>695</ele>
        <time>2017-08-10T09:14:16Z</time>
      </trkpt>
      <trkpt lat="44.82492" lon="5.68579">
        <ele>693</ele>
        <time>2017-08-10T09:14:23Z</time>
      </trkpt>
      <trkpt lat="44.825" lon="5.68565">
        <ele>695</ele>
        <time>2017-08-10T09:14:41Z</time>
      </trkpt>
      <trkpt lat="44.82504" lon="5.68553">
        <ele>695</ele>
        <time>2017-08-10T09:14:48Z</time>
      </trkpt>
      <trkpt lat="44.82508" lon="5.68519">
        <ele>694</ele>
        <time>2017-08-10T09:15:01Z</time>
      </trkpt>
      <trkpt lat="44.82507" lon="5.68477">
        <ele>693</ele>
        <time>2017-08-10T09:15:06Z</time>
      </trkpt>
      <trkpt lat="44.8251" lon="5.68461">
        <ele>694</ele>
        <time>2017-08-10T09:15:14Z</time>
      </trkpt>
      <trkpt lat="44.82516" lon="5.68445">
        <ele>694</ele>
        <time>2017-08-10T09:15:33Z</time>
      </trkpt>
      <trkpt lat="44.82534" lon="5.6842">
        <ele>695</ele>
        <time>2017-08-10T09:15:35Z</time>
      </trkpt>
      <trkpt lat="44.82541" lon="5.68405">
        <ele>698</ele>
        <time>2017-08-10T09:15:50Z</time>
      </trkpt>
      <trkpt lat="44.82546" lon="5.68381">
        <ele>699</ele>
        <time>2017-08-10T09:16:02Z</time>
      </trkpt>
      <trkpt lat="44.82548" lon="5.68357">
        <ele>700</ele>
        <time>2017-08-10T09:16:19Z</time>
      </trkpt>
      <trkpt lat="44.82546" lon="5.68334">
        <ele>700</ele>
        <time>2017-08-10T09:16:36Z</time>
      </trkpt>
      <trkpt lat="44.8254" lon="5.6831">
        <ele>702</ele>
        <time>2017-08-10T09:16:49Z</time>
      </trkpt>
      <trkpt lat="44.8253" lon="5.68288">
        <ele>702</ele>
        <time>2017-08-10T09:16:53Z</time>
      </trkpt>
      <trkpt lat="44.82492" lon="5.68229">
        <ele>696</ele>
        <time>2017-08-10T09:17:03Z</time>
      </trkpt>
      <trkpt lat="44.82475" lon="5.68194">
        <ele>696</ele>
        <time>2017-08-10T09:17:19Z</time>
      </trkpt>
      <trkpt lat="44.82472" lon="5.68175">
        <ele>697</ele>
        <time>2017-08-10T09:17:25Z</time>
      </trkpt>
      <trkpt lat="44.82473" lon="5.68163">
        <ele>697</ele>
        <time>2017-08-10T09:17:32Z</time>
      </trkpt>
      <trkpt lat="44.8248" lon="5.68131">
        <ele>696</ele>
        <time>2017-08-10T09:17:34Z</time>
      </trkpt>
      <trkpt lat="44.8249" lon="5.68109">
        <ele>696</ele>
        <time>2017-08-10T09:17:48Z</time>
      </trkpt>
      <trkpt lat="44.82502" lon="5.68091">
        <ele>700</ele>
        <time>2017-08-10T09:18:04Z</time>
      </trkpt>
      <trkpt lat="44.82514" lon="5.68075">
        <ele>699</ele>
        <time>2017-08-10T09:18:09Z</time>
      </trkpt>
      <trkpt lat="44.82529" lon="5.68063">
        <ele>700</ele>
        <time>2017-08-10T09:18:21Z</time>
      </trkpt>
      <trkpt lat="44.82536" lon="5.68057">
        <ele>700</ele>
        <time>2017-08-10T09:18:41Z</time>
      </trkpt>
      <trkpt lat="44.82539" lon="5.68045">
        <ele>700</ele>
        <time>2017-08-10T09:18:48Z</time>
      </trkpt>
      <trkpt lat="44.82538" lon="5.68019">
        <ele>699</ele>
        <time>2017-08-10T09:18:58Z</time>
      </trkpt>
      <trkpt lat="44.82538" lon="5.68003">
        <ele>698</ele>
        <time>2017-08-10T09:19:07Z</time>
      </trkpt>
      <trkpt lat="44.82542" lon="5.67986">
        <ele>694</ele>
        <time>2017-08-10T09:19:12Z</time>
      </trkpt>
      <trkpt lat="44.82557" lon="5.67955">
        <ele>694</ele>
        <time>2017-08-10T09:19:24Z</time>
      </trkpt>
      <trkpt lat="44.82566" lon="5.67927">
        <ele>695</ele>
        <time>2017-08-10T09:19:27Z</time>
      </trkpt>
      <trkpt lat="44.82566" lon="5.67905">
        <ele>693</ele>
        <time>2017-08-10T09:19:31Z</time>
      </trkpt>
      <trkpt lat="44.82562" lon="5.67875">
        <ele>691</ele>
        <time>2017-08-10T09:19:33Z</time>
      </trkpt>
      <trkpt lat="44.82564" lon="5.67816">
        <ele>690</ele>
        <time>2017-08-10T09:19:51Z</time>
      </trkpt>
      <trkpt lat="44.82569" lon="5.67782">
        <ele>688</ele>
        <time>2017-08-10T09:20:09Z</time>
      </trkpt>
      <trkpt lat="44.82594" lon="5.67696">
        <ele>684</ele>
        <time>2017-08-10T09:20:19Z</time>
      </trkpt>
      <trkpt lat="44.82619" lon="5.67594">
        <ele>675</ele>
        <time>2017-08-10T09:20:38Z</time>
      </trkpt>
      <trkpt lat="44.82618" lon="5.67582">
        <ele>669</ele>
        <time>2017-08-10T09:20:57Z</time>
      </trkpt>
      <trkpt lat="44.82613" lon="5.67573">
        <ele>669</ele>
        <time>2017-08-10T09:21:08Z</time>
      </trkpt>
      <trkpt lat="44.82607" lon="5.67568">
        <ele>669</ele>
        <time>2017-08-10T09:21:13Z</time>
      </trkpt>
      <trkpt lat="44.82598" lon="5.67566">
        <ele>669</ele>
        <time>2017-08-10T09:21:30Z</time>
      </trkpt>
      <trkpt lat="44.82573" lon="5.6757">
        <ele>667</ele>
        <time>2017-08-10T09:21:40Z</time>
      </trkpt>
      <trkpt lat="44.82564" lon="5.67577">
        <ele>667</ele>
        <time>2017-08-10T09:21:53Z</time>
      </trkpt>
      <trkpt lat="44.8256" lon="5.67584">
        <ele>671</ele>
        <time>2017-08-10T09:22:04Z</time>
      </trkpt>
      <trkpt lat="44.82554" lon="5.67607">
        <ele>671</ele>
        <time>2017-08-10T09:22:24Z</time>
      </trkpt>
      <trkpt lat="44.82544" lon="5.67612">
        <ele>671</ele>
        <time>2017-08-10T09:22:42Z</time>
      </trkpt>
      <trkpt lat="44.82539" lon="5.6761">
        <ele>671</ele>
        <time>2017-08-10T09:22:44Z</time>
      </trkpt>
      <trkpt lat="44.82534" lon="5.67603">
        <ele>670</ele>
        <time>2017-08-10T09:23:03Z</time>
      </trkpt>
      <trkpt lat="44.82521" lon="5.67575">
        <ele>665</ele>
        <time>2017-08-10T09:23:10Z</time>
      </trkpt>
      <trkpt lat="44.8251" lon="5.67551">
        <ele>664</ele>
        <time>2017-08-10T09:23:20Z</time>
      </trkpt>
      <trkpt lat="44.82504" lon="5.67532">
        <ele>662</ele>
        <time>2017-08-10T09:23:34Z</time>
      </trkpt>
      <trkpt lat="44.82499" lon="5.67499">
        <ele>658</ele>
        <time>2017-08-10T09:23:48Z</time>
      </trkpt>
      <trkpt lat="44.82493" lon="5.67458">
        <ele>651</ele>
        <time>2017-08-10T09:23:57Z</time>
      </trkpt>
      <trkpt lat="44.82487" lon="5.6745">
        <ele>651</ele>
        <time>2017-08-10T09:24:01Z</time>
      </trkpt>
      <trkpt lat="44.82481" lon="5.67448">
        <ele>650</ele>
        <time>2017-08-10T09:24:13Z</time>
      </trkpt>
      <trkpt lat="44.82472" lon="5.67452">
        <ele>650</ele>
        <time>2017-08-10T09:24:29Z</time>
      </trkpt>
      <trkpt lat="44.82431" lon="5.67486">
        <ele>651</ele>
        <time>2017-08-10T09:24:43Z</time>
      </trkpt>
      <trkpt lat="44.82423" lon="5.67489">
        <ele>651</ele>
        <time>2017-08-10T09:25:03Z</time>
      </trkpt>
      <trkpt lat="44.82418" lon="5.67486">
        <ele>651</ele>
        <time>2017-08-10T09:25:22Z</time>
      </trkpt>
      <trkpt lat="44.82417" lon="5.67476">
        <ele>650</ele>
        <time>2017-08-10T09:25:26Z</time>
      </trkpt>
      <trkpt lat="44.82421" lon="5.67458">
        <ele>649</ele>
        <time>2017-08-10T09:25:43Z</time>
      </trkpt>
      <trkpt lat="44.82424" lon="5.67431">
        <ele>646</ele>
        <time>2017-08-10T09:25:46Z</time>
      </trkpt>
      <trkpt lat="44.82432" lon="5.67369">
        <ele>641</ele>
        <time>2017-08-10T09:25:58Z</time>
      </trkpt>
      <trkpt lat="44.82438" lon="5.67217">
        <ele>626</ele>
        <time>2017-08-10T09:26:11Z</time>
      </trkpt>
      <trkpt lat="44.82445" lon="5.67137">
        <ele>618</ele>
        <time>2017-08-10T09:26:13Z</time>
      </trkpt>
      <trkpt lat="44.82456" lon="5.67065">
        <ele>609</ele>
        <time>2017-08-10T09:26:23Z</time>
      </trkpt>
      <trkpt lat="44.82456" lon="5.67056">
        <ele>608</ele>
        <time>2017-08-10T09:26:32Z</time>
      </trkpt>
      <trkpt lat="44.82453" lon="5.6705">
        <ele>608</ele>
        <time>2017-08-10T09:26:45Z</time>
      </trkpt>
      <trkpt lat="44.82449" lon="5.67047">
        <ele>607</ele>
        <time>2017-08-10T09:26:54Z</time>
      </trkpt>
      <trkpt lat="44.82441" lon="5.67048">
        <ele>607</ele>
        <time>2017-08-10T09:26:59Z</time>
      </trkpt>
      <trkpt lat="44.82436" lon="5.67053">
        <ele>607</ele>
        <time>2017-08-10T09:27:10Z</time>
      </trkpt>
      <trkpt lat="44.82411" lon="5.67091">
        <ele>608</ele>
        <time>2017-08-10T09:27:26Z</time>
      </trkpt>
      <trkpt lat="44.82401" lon="5.67106">
        <ele>607</ele>
        <time>2017-08-10T09:27:36Z</time>
      </trkpt>
      <trkpt lat="44.82388" lon="5.67118">
        <ele>606</ele>
        <time>2017-08-10T09:27:50Z</time>
      </trkpt>
      <trkpt lat="44.82367" lon="5.67142">
        <ele>605</ele>
        <time>2017-08-10T09:28:08Z</time>
      </trkpt>
      <trkpt lat="44.82355" lon="5.67164">
        <ele>604</ele>
        <time>2017-08-10T09:28:15Z</time>
      </trkpt>
      <trkpt lat="44.82339" lon="5.67187">
        <ele>609</ele>
        <time>2017-08-10T09:28:29Z</time>
      </trkpt>
      <trkpt lat="44.82325" lon="5.67204">
        <ele>599</ele>
        <time>2017-08-10T09:28:47Z</time>
      </trkpt>
      <trkpt lat="44.8231" lon="5.6723">
        <ele>600</ele>
        <time>2017-08-10T09:29:04Z</time>
      </trkpt>
      <trkpt lat="44.82291" lon="5.67271">
        <ele>602</ele>
        <time>2017-08-10T09:29:07Z</time>
      </trkpt>
      <trkpt lat="44.82285" lon="5.67277">
        <ele>602</ele>
        <time>2017-08-10T09:29:18Z</time>
      </trkpt>
      <trkpt lat="44.82278" lon="5.67276">
        <ele>601</ele>
        <time>2017-08-10T09:29:33Z</time>
      </trkpt>
      <trkpt lat="44.82273" lon="5.67272">
        <ele>599</ele>
        <time>2017-08-10T09:29:38Z</time>
      </trkpt>
      <trkpt lat="44.82271" lon="5.67264">
        <ele>598</ele>
        <time>2017-08-10T09:29:43Z</time>
      </trkpt>
      <trkpt lat="44.82271" lon="5.67253">
        <ele>597</ele>
        <time>2017-08-10T09:29:46Z</time>
      </trkpt>
      <trkpt lat="44.82278" lon="5.67231">
        <ele>595</ele>
        <time>2017-08-10T09:29:54Z</time>
      </trkpt>
      <trkpt lat="44.82296" lon="5.67187">
        <ele>596</ele>
        <time>2017-08-10T09:29:57Z</time>
      </trkpt>
      <trkpt lat="44.82298" lon="5.67174">
        <ele>595</ele>
        <time>2017-08-10T09:30:00Z</time>
      </trkpt>
      <trkpt lat="44.8228" lon="5.67194">
        <ele>594</ele>
        <time>2017-08-10T09:30:08Z</time>
      </trkpt>
      <trkpt lat="44.82265" lon="5.67214">
        <ele>593</ele>
        <time>2017-08-10T09:30:16Z</time>
      </trkpt>
      <trkpt lat="44.82253" lon="5.67235">
        <ele>592</ele>
        <time>2017-08-10T09:30:32Z</time>
      </trkpt>
      <trkpt lat="44.82249" lon="5.67249">
        <ele>589</ele>
        <time>2017-08-10T09:30:42Z</time>
      </trkpt>
      <trkpt lat="44.82248" lon="5.67272">
        <ele>590</ele>
        <time>2017-08-10T09:31:02Z</time>
      </trkpt>
      <trkpt lat="44.82252" lon="5.67295">
        <ele>599</ele>
        <time>2017-08-10T09:31:04Z</time>
      </trkpt>
      <trkpt lat="44.82252" lon="5.67314">
        <ele>598</ele>
        <time>2017-08-10T09:31:16Z</time>
      </trkpt>
      <trkpt lat="44.82247" lon="5.6733">
        <ele>593</ele>
        <time>2017-08-10T09:31:28Z</time>
      </trkpt>
      <trkpt lat="44.82238" lon="5.67342">
        <ele>595</ele>
        <time>2017-08-10T09:31:42Z</time>
      </trkpt>
      <trkpt lat="44.82178" lon="5.67384">
        <ele>594</ele>
        <time>2017-08-10T09:31:58Z</time>
      </trkpt>
      <trkpt lat="44.82154" lon="5.674">
        <ele>594</ele>
        <time>2017-08-10T09:32:08Z</time>
      </trkpt>
      <trkpt lat="44.82137" lon="5.67407">
        <ele>593</ele>
        <time>2017-08-10T09:32:25Z</time>
      </trkpt>
      <trkpt lat="44.821" lon="5.67414">
        <ele>593</ele>
        <time>2017-08-10T09:32:43Z</time>
      </trkpt>
      <trkpt lat="44.82085" lon="5.6742">
        <ele>594</ele>
        <time>2017-08-10T09:32:49Z</time>
      </trkpt>
      <trkpt lat="44.82074" lon="5.6743">
        <ele>596</ele>
        <time>2017-08-10T09:32:55Z</time>
      </trkpt>
      <trkpt lat="44.82053" lon="5.67457">
        <ele>598</ele>
        <time>2017-08-10T09:33:06Z</time>
      </trkpt>
      <trkpt lat="44.82026" lon="5.67498">
        <ele>597</ele>
        <time>2017-08-10T09:33:21Z</time>
      </trkpt>
      <trkpt lat="44.81998" lon="5.67537">
        <ele>597</ele>
        <time>2017-08-10T09:33:23Z</time>
      </trkpt>
      <trkpt lat="44.81956" lon="5.67602">
        <ele>598</ele>
        <time>2017-08-10T09:33:36Z</time>
      </trkpt>
      <trkpt lat="44.81939" lon="5.67631">
        <ele>598</ele>
        <time>2017-08-10T09:33:47Z</time>
      </trkpt>
      <trkpt lat="44.81933" lon="5.67647">
        <ele>598</ele>
        <time>2017-08-10T09:34:06Z</time>
      </trkpt>
      <trkpt lat="44.81925" lon="5.67678">
        <ele>599</ele>
        <time>2017-08-10T09:34:26Z</time>
      </trkpt>
      <trkpt lat="44.8192" lon="5.67723">
        <ele>601</ele>
        <time>2017-08-10T09:34:39Z</time>
      </trkpt>
      <trkpt lat="44.81914" lon="5.67755">
        <ele>596</ele>
        <time>2017-08-10T09:34:59Z</time>
      </trkpt>
      <trkpt lat="44.81857" lon="5.67895">
        <ele>599</ele>
        <time>2017-08-10T09:35:07Z</time>
      </trkpt>
      <trkpt lat="44.81827" lon="5.67967">
        <ele>600</ele>
        <time>2017-08-10T09:35:23Z</time>
      </trkpt>
      <trkpt lat="44.81815" lon="5.6799">
        <ele>601</ele>
        <time>2017-08-10T09:35:38Z</time>
      </trkpt>
      <trkpt lat="44.81791" lon="5.68018">
        <ele>604</ele>
        <time>2017-08-10T09:35:44Z</time>
      </trkpt>
      <trkpt lat="44.81759" lon="5.6805">
        <ele>603</ele>
        <time>2017-08-10T09:36:00Z</time>
      </trkpt>
      <trkpt lat="44.81693" lon="5.68107">
        <ele>598</ele>
        <time>2017-08-10T09:36:13Z</time>
      </trkpt>
      <trkpt lat="44.81655" lon="5.68138">
        <ele>596</ele>
        <time>2017-08-10T09:36:30Z</time>
      </trkpt>
      <trkpt lat="44.81635" lon="5.6816">
        <ele>596</ele>
        <time>2017-08-10T09:36:42Z</time>
      </trkpt>
      <trkpt lat="44.81619" lon="5.68181">
        <ele>597</ele>
        <time>2017-08-10T09:36:51Z</time>
      </trkpt>
      <trkpt lat="44.81608" lon="5.68203">
        <ele>597</ele>
        <time>2017-08-10T09:36:57Z</time>
      </trkpt>
      <trkpt lat="44.81593" lon="5.68246">
        <ele>598</ele>
        <time>2017-08-10T09:37:12Z</time>
      </trkpt>
      <trkpt lat="44.81588" lon="5.68271">
        <ele>599</ele>
        <time>2017-08-10T09:37:29Z</time>
      </trkpt>
      <trkpt lat="44.81575" lon="5.68361">
        <ele>602</ele>
        <time>2017-08-10T09:37:36Z</time>
      </trkpt>
      <trkpt lat="44.81548" lon="5.68575">
        <ele>607</ele>
        <time>2017-08-10T09:37:39Z</time>
      </trkpt>
      <trkpt lat="44.81541" lon="5.6862">
        <ele>609</ele>
        <time>2017-08-10T09:37:51Z</time>
      </trkpt>
      <trkpt lat="44.81535" lon="5.68647">
        <ele>610</ele>
        <time>2017-08-10T09:38:04Z</time>
      </trkpt>
      <trkpt lat="44.81528" lon="5.68668">
        <ele>612</ele>
        <time>2017-08-10T09:38:09Z</time>
      </trkpt>
      <trkpt lat="44.81505" lon="5.68713">
        <ele>611</ele>
        <time>2017-08-10T09:38:23Z</time>
      </trkpt>
      <trkpt lat="44.81465" lon="5.68785">
        <ele>616</ele>
        <time>2017-08-10T09:38:39Z</time>
      </trkpt>
      <trkpt lat="44.81429" lon="5.68846">
        <ele>616</ele>
        <time>2017-08-10T09:38:43Z</time>
      </trkpt>
      <trkpt lat="44.814" lon="5.68872">
        <ele>621</ele>
        <time>2017-08-10T09:39:02Z</time>
      </trkpt>
      <trkpt lat="44.81368" lon="5.68903">
        <ele>623</ele>
        <time>2017-08-10T09:39:14Z</time>
      </trkpt>
      <trkpt lat="44.81359" lon="5.68919">
        <ele>621</ele>
        <time>2017-08-10T09:39:16Z</time>
      </trkpt>
      <trkpt lat="44.81352" lon="5.68938">
        <ele>621</ele>
        <time>2017-08-10T09:39:31Z</time>
      </trkpt>
      <trkpt lat="44.81342" lon="5.68981">
        <ele>619</ele>
        <time>2017-08-10T09:39:51Z</time>
      </trkpt>
      <trkpt lat="44.81331" lon="5.69023">
        <ele>622</ele>
        <time>2017-08-10T09:39:56Z</time>
      </trkpt>
      <trkpt lat="44.81287" lon="5.691">
        <ele>620</ele>
        <time>2017-08-10T09:39:59Z</time>
      </trkpt>
      <trkpt lat="44.81274" lon="5.69135">
        <ele>619</ele>
        <time>2017-08-10T09:40:10Z</time>
      </trkpt>
      <trkpt lat="44.8126" lon="5.69168">
        <ele>618</ele>
        <time>2017-08-10T09:40:28Z</time>
      </trkpt>
      <trkpt lat="44.81241" lon="5.692">
        <ele>621</ele>
        <time>2017-08-10T09:40:36Z</time>
      </trkpt>
      <trkpt lat="44.81228" lon="5.69219">
        <ele>622</ele>
        <time>2017-08-10T09:40:56Z</time>
      </trkpt>
      <trkpt lat="44.81218" lon="5.6923">
        <ele>622</ele>
        <time>2017-08-10T09:41:11Z</time>
      </trkpt>
      <trkpt lat="44.81201" lon="5.69238">
        <ele>622</ele>
        <time>2017-08-10T09:41:26Z</time>
      </trkpt>
      <trkpt lat="44.81176" lon="5.69244">
        <ele>621</ele>
        <time>2017-08-10T09:41:32Z</time>
      </trkpt>
      <trkpt lat="44.81163" lon="5.69252">
        <ele>622</ele>
        <time>2017-08-10T09:41:46Z</time>
      </trkpt>
      <trkpt lat="44.81152" lon="5.69279">
        <ele>625</ele>
        <time>2017-08-10T09:42:05Z</time>
      </trkpt>
      <trkpt lat="44.81138" lon="5.69325">
        <ele>625</ele>
        <time>2017-08-10T09:42:07Z</time>
      </trkpt>
      <trkpt lat="44.81107" lon="5.69375">
        <ele>628</ele>
        <time>2017-08-10T09:42:14Z</time>
      </trkpt>
      <trkpt lat="44.81052" lon="5.69454">
        <ele>629</ele>
        <time>2017-08-10T09:42:20Z</time>
      </trkpt>
      <trkpt lat="44.81004" lon="5.69524">
        <ele>632</ele>
        <time>2017-08-10T09:42:33Z</time>
      </trkpt>
      <trkpt lat="44.80968" lon="5.6959">
        <ele>634</ele>
        <time>2017-08-10T09:42:53Z</time>
      </trkpt>
      <trkpt lat="44.80929" lon="5.69671">
        <ele>631</ele>
        <time>2017-08-10T09:43:08Z</time>
      </trkpt>
      <trkpt lat="44.80894" lon="5.6975">
        <ele>631</ele>
        <time>2017-08-10T09:43:20Z</time>
      </trkpt>
      <trkpt lat="44.80841" lon="5.6991">
        <ele>632</ele>
        <time>2017-08-10T09:43:24Z</time>
      </trkpt>
      <trkpt lat="44.80838" lon="5.69928">
        <ele>632</ele>
        <time>2017-08-10T09:43:35Z</time>
      </trkpt>
      <trkpt lat="44.80839" lon="5.69944">
        <ele>633</ele>
        <time>2017-08-10T09:43:45Z</time>
      </trkpt>
      <trkpt lat="44.80852" lon="5.69997">
        <ele>632</ele>
        <time>2017-08-10T09:44:05Z</time>
      </trkpt>
      <trkpt lat="44.80859" lon="5.70029">
        <ele>635</ele>
        <time>2017-08-10T09:44:14Z</time>
      </trkpt>
      <trkpt lat="44.80861" lon="5.70052">
        <ele>636</ele>
        <time>2017-08-10T09:44:25Z</time>
      </trkpt>
      <trkpt lat="44.8086" lon="5.70081">
        <ele>635</ele>
        <time>2017-08-10T09:44:39Z</time>
      </trkpt>
      <trkpt lat="44.8083" lon="5.70076">
        <ele>633</ele>
        <time>2017-08-10T09:44:43Z</time>
      </trkpt>
      <trkpt lat="44.80821" lon="5.70073">
        <ele>635</ele>
        <time>2017-08-10T09:44:51Z</time>
      </trkpt>
      <trkpt lat="44.80806" lon="5.70057">
        <ele>639</ele>
        <time>2017-08-10T09:45:03Z</time>
      </trkpt>
      <trkpt lat="44.80788" lon="5.7003">
        <ele>641</ele>
        <time>2017-08-10T09:45:22Z</time>
      </trkpt>
      <trkpt lat="44.80774" lon="5.69998">
        <ele>644</ele>
        <time>2017-08-10T09:45:32Z</time>
      </trkpt>
      <trkpt lat="44.80764" lon="5.69935">
        <ele>645</ele>
        <time>2017-08-10T09:45:34Z</time>
      </trkpt>
      <trkpt lat="44.8076" lon="5.69877">
        <ele>644</ele>
        <time>2017-08-10T09:45:37Z</time>
      </trkpt>
      <trkpt lat="44.80763" lon="5.69838">
        <ele>648</ele>
        <time>2017-08-10T09:45:45Z</time>
      </trkpt>
      <trkpt lat="44.80771" lon="5.69792">
        <ele>644</ele>
        <time>2017-08-10T09:45:51Z</time>
      </trkpt>
      <trkpt lat="44.80772" lon="5.69758">
        <ele>646</ele>
        <time>2017-08-10T09:46:02Z</time>
      </trkpt>
      <trkpt lat="44.80766" lon="5.69737">
        <ele>646</ele>
        <time>2017-08-10T09:46:15Z</time>
      </trkpt>
      <trkpt lat="44.80759" lon="5.69729">
        <ele>646</ele>
        <time>2017-08-10T09:46:20Z</time>
      </trkpt>
      <trkpt lat="44.80737" lon="5.69721">
        <ele>655</ele>
        <time>2017-08-10T09:46:30Z</time>
      </trkpt>
      <trkpt lat="44.80727" lon="5.69717">
        <ele>655</ele>
        <time>2017-08-10T09:46:35Z</time>
      </trkpt>
      <trkpt lat="44.80718" lon="5.6971">
        <ele>656</ele>
        <time>2017-08-10T09:46:52Z</time>
      </trkpt>
      <trkpt lat="44.80708" lon="5.69703">
        <ele>656</ele>
        <time>2017-08-10T09:46:59Z</time>
      </trkpt>
      <trkpt lat="44.80692" lon="5.69696">
        <ele>657</ele>
        <time>2017-08-10T09:47:14Z</time>
      </trkpt>
      <trkpt lat="44.80642" lon="5.69678">
        <ele>665</ele>
        <time>2017-08-10T09:47:20Z</time>
      </trkpt>
      <trkpt lat="44.80613" lon="5.69661">
        <ele>661</ele>
        <time>2017-08-10T09:47:29Z</time>
      </trkpt>
      <trkpt lat="44.80596" lon="5.69656">
        <ele>663</ele>
        <time>2017-08-10T09:47:48Z</time>
      </trkpt>
      <trkpt lat="44.80576" lon="5.69659">
        <ele>665</ele>
        <time>2017-08-10T09:47:53Z</time>
      </trkpt>
      <trkpt lat="44.80555" lon="5.69658">
        <ele>664</ele>
        <time>2017-08-10T09:47:56Z</time>
      </trkpt>
      <trkpt lat="44.80542" lon="5.69643">
        <ele>664</ele>
        <time>2017-08-10T09:48:10Z</time>
      </trkpt>
      <trkpt lat="44.80529" lon="5.69622">
        <ele>663</ele>
        <time>2017-08-10T09:48:21Z</time>
      </trkpt>
      <trkpt lat="44.80516" lon="5.69615">
        <ele>662</ele>
        <time>2017-08-10T09:48:29Z</time>
      </trkpt>
      <trkpt lat="44.80505" lon="5.69617">
        <ele>662</ele>
        <time>2017-08-10T09:48:41Z</time>
      </trkpt>
      <trkpt lat="44.80496" lon="5.69622">
        <ele>666</ele>
        <time>2017-08-10T09:48:58Z</time>
      </trkpt>
      <trkpt lat="44.80484" lon="5.69637">
        <ele>667</ele>
        <time>2017-08-10T09:49:00Z</time>
      </trkpt>
      <trkpt lat="44.80454" lon="5.69675">
        <ele>673</ele>
        <time>2017-08-10T09:49:02Z</time>
      </trkpt>
      <trkpt lat="44.80439" lon="5.69687">
        <ele>673</ele>
        <time>2017-08-10T09:49:10Z</time>
      </trkpt>
      <trkpt lat="44.80428" lon="5.69691">
        <ele>673</ele>
        <time>2017-08-10T09:49:24Z</time>
      </trkpt>
      <trkpt lat="44.80422" lon="5.69689">
        <ele>672</ele>
        <time>2017-08-10T09:49:42Z</time>
      </trkpt>
      <trkpt lat="44.80415" lon="5.69681">
        <ele>671</ele>
        <time>2017-08-10T09:49:59Z</time>
      </trkpt>
      <trkpt lat="44.80404" lon="5.69655">
        <ele>671</ele>
        <time>2017-08-10T09:50:13Z</time>
      </trkpt>
      <trkpt lat="44.80397" lon="5.69635">
        <ele>672</ele>
        <time>2017-08-10T09:50:17Z</time>
      </trkpt>
      <trkpt lat="44.80395" lon="5.69608">
        <ele>673</ele>
        <time>2017-08-10T09:50:31Z</time>
      </trkpt>
      <trkpt lat="44.80396" lon="5.69598">
        <ele>673</ele>
        <time>2017-08-10T09:50:50Z</time>
      </trkpt>
      <trkpt lat="44.80403" lon="5.6958">
        <ele>677</ele>
        <time>2017-08-10T09:51:09Z</time>
      </trkpt>
      <trkpt lat="44.8042" lon="5.69553">
        <ele>675</ele>
        <time>2017-08-10T09:51:23Z</time>
      </trkpt>
      <trkpt lat="44.80421" lon="5.69537">
        <ele>678</ele>
        <time>2017-08-10T09:51:38Z</time>
      </trkpt>
      <trkpt lat="44.80417" lon="5.6953">
        <ele>679</ele>
        <time>2017-08-10T09:51:43Z</time>
      </trkpt>
      <trkpt lat="44.80413" lon="5.69528">
        <ele>684</ele>
        <time>2017-08-10T09:51:55Z</time>
      </trkpt>
      <trkpt lat="44.80409" lon="5.69527">
        <ele>684</ele>
        <time>2017-08-10T09:52:01Z</time>
      </trkpt>
      <trkpt lat="44.80399" lon="5.69533">
        <ele>684</ele>
        <time>2017-08-10T09:52:12Z</time>
      </trkpt>
      <trkpt lat="44.80374" lon="5.69549">
        <ele>682</ele>
        <time>2017-08-10T09:52:30Z</time>
      </trkpt>
      <trkpt lat="44.80363" lon="5.69553">
        <ele>682</ele>
        <time>2017-08-10T09:52:50Z</time>
      </trkpt>
      <trkpt lat="44.80352" lon="5.69554">
        <ele>682</ele>
        <time>2017-08-10T09:52:55Z</time>
      </trkpt>
      <trkpt lat="44.80338" lon="5.69552">
        <ele>683</ele>
        <time>2017-08-10T09:53:00Z</time>
      </trkpt>
      <trkpt lat="44.80322" lon="5.69546">
        <ele>686</ele>
        <time>2017-08-10T09:53:09Z</time>
      </trkpt>
      <trkpt lat="44.80292" lon="5.69534">
        <ele>687</ele>
        <time>2017-08-10T09:53:19Z</time>
      </trkpt>
      <trkpt lat="44.80273" lon="5.69531">
        <ele>688</ele>
        <time>2017-08-10T09:53:30Z</time>
      </trkpt>
      <trkpt lat="44.80254" lon="5.69532">
        <ele>688</ele>
        <time>2017-08-10T09:53:44Z</time>
      </trkpt>
      <trkpt lat="44.80209" lon="5.69536">
        <ele>692</ele>
        <time>2017-08-10T09:54:00Z</time>
      </trkpt>
      <trkpt lat="44.80153" lon="5.69544">
        <ele>698</ele>
        <time>2017-08-10T09:54:12Z</time>
      </trkpt>
      <trkpt lat="44.80144" lon="5.69545">
        <ele>698</ele>
        <time>2017-08-10T09:54:14Z</time>
      </trkpt>
      <trkpt lat="44.80015" lon="5.69564">
        <ele>707</ele>
        <time>2017-08-10T09:54:29Z</time>
      </trkpt>
      <trkpt lat="44.79967" lon="5.69571">
        <ele>712</ele>
        <time>2017-08-10T09:54:40Z</time>
      </trkpt>
      <trkpt lat="44.79898" lon="5.69578">
        <ele>717</ele>
        <time>2017-08-10T09:54:58Z</time>
      </trkpt>
      <trkpt lat="44.7985" lon="5.69579">
        <ele>719</ele>
        <time>2017-08-10T09:55:04Z</time>
      </trkpt>
      <trkpt lat="44.79828" lon="5.69575">
        <ele>721</ele>
        <time>2017-08-10T09:55:12Z</time>
      </trkpt>
      <trkpt lat="44.79802" lon="5.69564">
        <ele>722</ele>
        <time>2017-08-10T09:55:21Z</time>
      </trkpt>
      <trkpt lat="44.79769" lon="5.69544">
        <ele>723</ele>
        <time>2017-08-10T09:55:27Z</time>
      </trkpt>
      <trkpt lat="44.79739" lon="5.69525">
        <ele>725</ele>
        <time>2017-08-10T09:55:30Z</time>
      </trkpt>
      <trkpt lat="44.79712" lon="5.69512">
        <ele>726</ele>
        <time>2017-08-10T09:55:45Z</time>
      </trkpt>
      <trkpt lat="44.79645" lon="5.69487">
        <ele>732</ele>
        <time>2017-08-10T09:55:47Z</time>
      </trkpt>
      <trkpt lat="44.7959" lon="5.69464">
        <ele>733</ele>
        <time>2017-08-10T09:55:52Z</time>
      </trkpt>
      <trkpt lat="44.79568" lon="5.69451">
        <ele>734</ele>
        <time>2017-08-10T09:56:10Z</time>
      </trkpt>
      <trkpt lat="44.79485" lon="5.69389">
        <ele>741</ele>
        <time>2017-08-10T09:56:26Z</time>
      </trkpt>
      <trkpt lat="44.79455" lon="5.69377">
        <ele>742</ele>
        <time>2017-08-10T09:56:31Z</time>
      </trkpt>
      <trkpt lat="44.79376" lon="5.69353">
        <ele>742</ele>
        <time>2017-08-10T09:56:51Z</time>
      </trkpt>
      <trkpt lat="44.79343" lon="5.69343">
        <ele>743</ele>
        <time>2017-08-10T09:57:03Z</time>
      </trkpt>
      <trkpt lat="44.79335" lon="5.69343">
        <ele>743</ele>
        <time>2017-08-10T09:57:15Z</time>
      </trkpt>
      <trkpt lat="44.79324" lon="5.69347">
        <ele>744</ele>
        <time>2017-08-10T09:57:21Z</time>
      </trkpt>
      <trkpt lat="44.79292" lon="5.69358">
        <ele>744</ele>
        <time>2017-08-10T09:57:28Z</time>
      </trkpt>
      <trkpt lat="44.7927" lon="5.69366">
        <ele>744</ele>
        <time>2017-08-10T09:57:47Z</time>
      </trkpt>
      <trkpt lat="44.79196" lon="5.69391">
        <ele>748</ele>
        <time>2017-08-10T09:57:55Z</time>
      </trkpt>
      <trkpt lat="44.79136" lon="5.69414">
        <ele>752</ele>
        <time>2017-08-10T09:58:13Z</time>
      </trkpt>
      <trkpt lat="44.79109" lon="5.69426">
        <ele>754</ele>
        <time>2017-08-10T09:58:19Z</time>
      </trkpt>
      <trkpt lat="44.7909" lon="5.69439">
        <ele>755</ele>
        <time>2017-08-10T09:58:25Z</time>
      </trkpt>
      <trkpt lat="44.79071" lon="5.69451">
        <ele>756</ele>
        <time>2017-08-10T09:58:37Z</time>
      </trkpt>
      <trkpt lat="44.79056" lon="5.69466">
        <ele>756</ele>
        <time>2017-08-10T09:58:41Z</time>
      </trkpt>
      <trkpt lat="44.7903" lon="5.69483">
        <ele>756</ele>
        <time>2017-08-10T09:58:55Z</time>
      </trkpt>
      <trkpt lat="44.79009" lon="5.69492">
        <ele>756</ele>
        <time>2017-08-10T09:59:03Z</time>
      </trkpt>
      <trkpt lat="44.7896" lon="5.69497">
        <ele>758</ele>
        <time>2017-08-10T09:59:21Z</time>
      </trkpt>
      <trkpt lat="44.78912" lon="5.69505">
        <ele>763</ele>
        <time>2017-08-10T09:59:33Z</time>
      </trkpt>
      <trkpt lat="44.78889" lon="5.69504">
        <ele>763</ele>
        <time>2017-08-10T09:59:51Z</time>
      </trkpt>
      <trkpt lat="44.78875" lon="5.69507">
        <ele>764</ele>
        <time>2017-08-10T10:00:06Z</time>
      </trkpt>
      <trkpt lat="44.78857" lon="5.69522">
        <ele>764</ele>
        <time>2017-08-10T10:00:24Z</time>
      </trkpt>
      <trkpt lat="44.78848" lon="5.69536">
        <ele>764</ele>
        <time>2017-08-10T10:00:39Z</time>
      </trkpt>
      <trkpt lat="44.78839" lon="5.69544">
        <ele>764</ele>
        <time>2017-08-10T10:00:54Z</time>
      </trkpt>
      <trkpt lat="44.78814" lon="5.69554">
        <ele>767</ele>
        <time>2017-08-10T10:01:03Z</time>
      </trkpt>
      <trkpt lat="44.78793" lon="5.69561">
        <ele>767</ele>
        <time>2017-08-10T10:01:17Z</time>
      </trkpt>
      <trkpt lat="44.78717" lon="5.69581">
        <ele>770</ele>
        <time>2017-08-10T10:01:21Z</time>
      </trkpt>
      <trkpt lat="44.78595" lon="5.6959">
        <ele>772</ele>
        <time>2017-08-10T10:01:40Z</time>
      </trkpt>
      <trkpt lat="44.78521" lon="5.69599">
        <ele>772</ele>
        <time>2017-08-10T10:01:46Z</time>
      </trkpt>
      <trkpt lat="44.78497" lon="5.69628">
        <ele>773</ele>
        <time>2017-08-10T10:01:48Z</time>
      </trkpt>
      <trkpt lat="44.78427" lon="5.69708">
        <ele>772</ele>
        <time>2017-08-10T10:01:55Z</time>
      </trkpt>
      <trkpt lat="44.78403" lon="5.69742">
        <ele>774</ele>
        <time>2017-08-10T10:02:10Z</time>
      </trkpt>
      <trkpt lat="44.78393" lon="5.69758">
        <ele>774</ele>
        <time>2017-08-10T10:02:15Z</time>
      </trkpt>
      <trkpt lat="44.78378" lon="5.69798">
        <ele>775</ele>
        <time>2017-08-10T10:02:17Z</time>
      </trkpt>
      <trkpt lat="44.78337" lon="5.69915">
        <ele>779</ele>
        <time>2017-08-10T10:02:26Z</time>
      </trkpt>
      <trkpt lat="44.78321" lon="5.69975">
        <ele>781</ele>
        <time>2017-08-10T10:02:28Z</time>
      </trkpt>
      <trkpt lat="44.78311" lon="5.70041">
        <ele>783</ele>
        <time>2017-08-10T10:02:45Z</time>
      </trkpt>
      <trkpt lat="44.78306" lon="5.70119">
        <ele>785</ele>
        <time>2017-08-10T10:02:54Z</time>
      </trkpt>
      <trkpt lat="44.78305" lon="5.70167">
        <ele>787</ele>
        <time>2017-08-10T10:03:08Z</time>
      </trkpt>
      <trkpt lat="44.78313" lon="5.7022">
        <ele>788</ele>
        <time>2017-08-10T10:03:27Z</time>
      </trkpt>
      <trkpt lat="44.78316" lon="5.70261">
        <ele>790</ele>
        <time>2017-08-10T10:03:29Z</time>
      </trkpt>
      <trkpt lat="44.78311" lon="5.70288">
        <ele>791</ele>
        <time>2017-08-10T10:03:39Z</time>
      </trkpt>
      <trkpt lat="44.78306" lon="5.70303">
        <ele>792</ele>
        <time>2017-08-10T10:03:42Z</time>
      </trkpt>
      <trkpt lat="44.78298" lon="5.70319">
        <ele>792</ele>
        <time>2017-08-10T10:03:46Z</time>
      </trkpt>
      <trkpt lat="44.7827" lon="5.70364">
        <ele>796</ele>
        <time>2017-08-10T10:03:51Z</time>
      </trkpt>
      <trkpt lat="44.78255" lon="5.70405">
        <ele>798</ele>
        <time>2017-08-10T10:04:10Z</time>
      </trkpt>
      <trkpt lat="44.78202" lon="5.70562">
        <ele>808</ele>
        <time>2017-08-10T10:04:23Z</time>
      </trkpt>
      <trkpt lat="44.78193" lon="5.70592">
        <ele>808</ele>
        <time>2017-08-10T10:04:25Z</time>
      </trkpt>
      <trkpt lat="44.7819" lon="5.70613">
        <ele>808</ele>
        <time>2017-08-10T10:04:27Z</time>
      </trkpt>
      <trkpt lat="44.78191" lon="5.70651">
        <ele>808</ele>
        <time>2017-08-10T10:04:34Z</time>
      </trkpt>
      <trkpt lat="44.78202" lon="5.70708">
        <ele>808</ele>
        <time>2017-08-10T10:04:46Z</time>
      </trkpt>
      <trkpt lat="44.7821" lon="5.70744">
        <ele>808</ele>
        <time>2017-08-10T10:04:56Z</time>
      </trkpt>
      <trkpt lat="44.78223" lon="5.70775">
        <ele>811</ele>
        <time>2017-08-10T10:05:16Z</time>
      </trkpt>
      <trkpt lat="44.78296" lon="5.70924">
        <ele>817</ele>
        <time>2017-08-10T10:05:30Z</time>
      </trkpt>
      <trkpt lat="44.78309" lon="5.70958">
        <ele>817</ele>
        <time>2017-08-10T10:05:48Z</time>
      </trkpt>
      <trkpt lat="44.78316" lon="5.70989">
        <ele>816</ele>
        <time>2017-08-10T10:06:04Z</time>
      </trkpt>
      <trkpt lat="44.78316" lon="5.71003">
        <ele>816</ele>
        <time>2017-08-10T10:06:06Z</time>
      </trkpt>
      <trkpt lat="44.78314" lon="5.71019">
        <ele>817</ele>
        <time>2017-08-10T10:06:10Z</time>
      </trkpt>
      <trkpt lat="44.78305" lon="5.7105">
        <ele>818</ele>
        <time>2017-08-10T10:06:14Z</time>
      </trkpt>
      <trkpt lat="44.78254" lon="5.71206">
        <ele>824</ele>
        <time>2017-08-10T10:06:24Z</time>
      </trkpt>
      <trkpt lat="44.78237" lon="5.71257">
        <ele>831</ele>
        <time>2017-08-10T10:06:30Z</time>
      </trkpt>
      <trkpt lat="44.78232" lon="5.71288">
        <ele>832</ele>
        <time>2017-08-10T10:06:33Z</time>
      </trkpt>
      <trkpt lat="44.78235" lon="5.71318">
        <ele>833</ele>
        <time>2017-08-10T10:06:42Z</time>
      </trkpt>
      <trkpt lat="44.78237" lon="5.71362">
        <ele>835</ele>
        <time>2017-08-10T10:07:02Z</time>
      </trkpt>
      <trkpt lat="44.78238" lon="5.71617">
        <ele>842</ele>
        <time>2017-08-10T10:07:14Z</time>
      </trkpt>
      <trkpt lat="44.78237" lon="5.71649">
        <ele>842</ele>
        <time>2017-08-10T10:07:24Z</time>
      </trkpt>
      <trkpt lat="44.78231" lon="5.7168">
        <ele>842</ele>
        <time>2017-08-10T10:07:38Z</time>
      </trkpt>
      <trkpt lat="44.78219" lon="5.71716">
        <ele>841</ele>
        <time>2017-08-10T10:07:44Z</time>
      </trkpt>
      <trkpt lat="44.7818" lon="5.71814">
        <ele>837</ele>
        <time>2017-08-10T10:07:49Z</time>
      </trkpt>
      <trkpt lat="44.78153" lon="5.71878">
        <ele>837</ele>
        <time>2017-08-10T10:08:00Z</time>
      </trkpt>
      <trkpt lat="44.78143" lon="5.71898">
        <ele>836</ele>
        <time>2017-08-10T10:08:03Z</time>
      </trkpt>
      <trkpt lat="44.78106" lon="5.71972">
        <ele>830</ele>
        <time>2017-08-10T10:08:10Z</time>
      </trkpt>
      <trkpt lat="44.78092" lon="5.71987">
        <ele>831</ele>
        <time>2017-08-10T10:08:22Z</time>
      </trkpt>
      <trkpt lat="44.78032" lon="5.72035">
        <ele>826</ele>
        <time>2017-08-10T10:08:37Z</time>
      </trkpt>
      <trkpt lat="44.77992" lon="5.7207">
        <ele>826</ele>
        <time>2017-08-10T10:08:48Z</time>
      </trkpt>
      <trkpt lat="44.77985" lon="5.72084">
        <ele>824</ele>
        <time>2017-08-10T10:08:58Z</time>
      </trkpt>
      <trkpt lat="44.7798" lon="5.72102">
        <ele>825</ele>
        <time>2017-08-10T10:09:16Z</time>
      </trkpt>
      <trkpt lat="44.77975" lon="5.72137">
        <ele>826</ele>
        <time>2017-08-10T10:09:32Z</time>
      </trkpt>
      <trkpt lat="44.77978" lon="5.72152">
        <ele>825</ele>
        <time>2017-08-10T10:09:50Z</time>
      </trkpt>
      <trkpt lat="44.77989" lon="5.72177">
        <ele>822</ele>
        <time>2017-08-10T10:10:00Z</time>
      </trkpt>
      <trkpt lat="44.78014" lon="5.72219">
        <ele>816</ele>
        <time>2017-08-10T10:10:08Z</time>
      </trkpt>
      <trkpt lat="44.78024" lon="5.72228">
        <ele>816</ele>
        <time>2017-08-10T10:10:21Z</time>
      </trkpt>
      <trkpt lat="44.78035" lon="5.72236">
        <ele>815</ele>
        <time>2017-08-10T10:10:38Z</time>
      </trkpt>
      <trkpt lat="44.7806" lon="5.72249">
        <ele>813</ele>
        <time>2017-08-10T10:10:44Z</time>
      </trkpt>
      <trkpt lat="44.78068" lon="5.72257">
        <ele>813</ele>
        <time>2017-08-10T10:10:55Z</time>
      </trkpt>
      <trkpt lat="44.78077" lon="5.72272">
        <ele>814</ele>
        <time>2017-08-10T10:11:01Z</time>
      </trkpt>
      <trkpt lat="44.78085" lon="5.72298">
        <ele>807</ele>
        <time>2017-08-10T10:11:08Z</time>
      </trkpt>
      <trkpt lat="44.7809" lon="5.72327">
        <ele>810</ele>
        <time>2017-08-10T10:11:18Z</time>
      </trkpt>
      <trkpt lat="44.78094" lon="5.72346">
        <ele>810</ele>
        <time>2017-08-10T10:11:25Z</time>
      </trkpt>
      <trkpt lat="44.78101" lon="5.72366">
        <ele>809</ele>
        <time>2017-08-10T10:11:39Z</time>
      </trkpt>
      <trkpt lat="44.78115" lon="5.72396">
        <ele>809</ele>
        <time>2017-08-10T10:11:55Z</time>
      </trkpt>
      <trkpt lat="44.78121" lon="5.72414">
        <ele>808</ele>
        <time>2017-08-10T10:12:15Z</time>
      </trkpt>
      <trkpt lat="44.78124" lon="5.7243">
        <ele>810</ele>
        <time>2017-08-10T10:12:28Z</time>
      </trkpt>
      <trkpt lat="44.78124" lon="5.72472">
        <ele>811</ele>
        <time>2017-08-10T10:12:34Z</time>
      </trkpt>
      <trkpt lat="44.78127" lon="5.72483">
        <ele>811</ele>
        <time>2017-08-10T10:12:39Z</time>
      </trkpt>
      <trkpt lat="44.78137" lon="5.725">
        <ele>810</ele>
        <time>2017-08-10T10:12:53Z</time>
      </trkpt>
      <trkpt lat="44.78199" lon="5.72583">
        <ele>803</ele>
        <time>2017-08-10T10:12:56Z</time>
      </trkpt>
      <trkpt lat="44.78209" lon="5.72603">
        <ele>801</ele>
        <time>2017-08-10T10:13:04Z</time>
      </trkpt>
      <trkpt lat="44.78214" lon="5.7262">
        <ele>800</ele>
        <time>2017-08-10T10:13:06Z</time>
      </trkpt>
      <trkpt lat="44.78213" lon="5.72635">
        <ele>799</ele>
        <time>2017-08-10T10:13:16Z</time>
      </trkpt>
      <trkpt lat="44.7821" lon="5.72653">
        <ele>799</ele>
        <time>2017-08-10T10:13:24Z</time>
      </trkpt>
      <trkpt lat="44.78199" lon="5.72681">
        <ele>795</ele>
        <time>2017-08-10T10:13:33Z</time>
      </trkpt>
      <trkpt lat="44.78189" lon="5.72701">
        <ele>795</ele>
        <time>2017-08-10T10:13:38Z</time>
      </trkpt>
      <trkpt lat="44.78178" lon="5.72714">
        <ele>794</ele>
        <time>2017-08-10T10:13:55Z</time>
      </trkpt>
      <trkpt lat="44.78164" lon="5.72727">
        <ele>800</ele>
        <time>2017-08-10T10:13:57Z</time>
      </trkpt>
      <trkpt lat="44.78149" lon="5.72741">
        <ele>799</ele>
        <time>2017-08-10T10:14:03Z</time>
      </trkpt>
      <trkpt lat="44.78136" lon="5.72756">
        <ele>796</ele>
        <time>2017-08-10T10:14:06Z</time>
      </trkpt>
      <trkpt lat="44.78125" lon="5.72775">
        <ele>796</ele>
        <time>2017-08-10T10:14:25Z</time>
      </trkpt>
      <trkpt lat="44.78113" lon="5.72801">
        <ele>795</ele>
        <time>2017-08-10T10:14:39Z</time>
      </trkpt>
      <trkpt lat="44.78089" lon="5.72864">
        <ele>790</ele>
        <time>2017-08-10T10:14:55Z</time>
      </trkpt>
      <trkpt lat="44.78077" lon="5.72903">
        <ele>792</ele>
        <time>2017-08-10T10:15:04Z</time>
      </trkpt>
      <trkpt lat="44.78063" lon="5.72964">
        <ele>791</ele>
        <time>2017-08-10T10:15:16Z</time>
      </trkpt>
      <trkpt lat="44.78062" lon="5.73019">
        <ele>790</ele>
        <time>2017-08-10T10:15:22Z</time>
      </trkpt>
      <trkpt lat="44.78074" lon="5.73073">
        <ele>790</ele>
        <time>2017-08-10T10:15:39Z</time>
      </trkpt>
      <trkpt lat="44.78106" lon="5.73185">
        <ele>793</ele>
        <time>2017-08-10T10:15:41Z</time>
      </trkpt>
      <trkpt lat="44.78108" lon="5.73197">
        <ele>793</ele>
        <time>2017-08-10T10:15:49Z</time>
      </trkpt>
      <trkpt lat="44.78106" lon="5.73211">
        <ele>794</ele>
        <time>2017-08-10T10:16:01Z</time>
      </trkpt>
      <trkpt lat="44.78098" lon="5.73275">
        <ele>797</ele>
        <time>2017-08-10T10:16:13Z</time>
      </trkpt>
      <trkpt lat="44.78097" lon="5.73291">
        <ele>797</ele>
        <time>2017-08-10T10:16:15Z</time>
      </trkpt>
      <trkpt lat="44.78102" lon="5.7329">
        <ele>797</ele>
        <time>2017-08-10T10:16:17Z</time>
      </trkpt>
      <trkpt lat="44.78121" lon="5.73285">
        <ele>797</ele>
        <time>2017-08-10T10:16:37Z</time>
      </trkpt>
      <trkpt lat="44.78154" lon="5.73277">
        <ele>797</ele>
        <time>2017-08-10T10:16:53Z</time>
      </trkpt>
      <trkpt lat="44.78161" lon="5.73275">
        <ele>796</ele>
        <time>2017-08-10T10:17:03Z</time>
      </trkpt>
      <trkpt lat="44.78174" lon="5.73278">
        <ele>794</ele>
        <time>2017-08-10T10:17:06Z</time>
      </trkpt>
      <trkpt lat="44.78206" lon="5.73289">
        <ele>793</ele>
        <time>2017-08-10T10:17:23Z</time>
      </trkpt>
      <trkpt lat="44.78234" lon="5.733">
        <ele>792</ele>
        <time>2017-08-10T10:17:36Z</time>
      </trkpt>
      <trkpt lat="44.78251" lon="5.73309">
        <ele>789</ele>
        <time>2017-08-10T10:17:40Z</time>
      </trkpt>
      <trkpt lat="44.7826" lon="5.73315">
        <ele>789</ele>
        <time>2017-08-10T10:17:51Z</time>
      </trkpt>
      <trkpt lat="44.78289" lon="5.73345">
        <ele>792</ele>
        <time>2017-08-10T10:18:10Z</time>
      </trkpt>
      <trkpt lat="44.783" lon="5.73355">
        <ele>793</ele>
        <time>2017-08-10T10:18:16Z</time>
      </trkpt>
      <trkpt lat="44.7831" lon="5.73359">
        <ele>793</ele>
        <time>2017-08-10T10:18:22Z</time>
      </trkpt>
      <trkpt lat="44.78338" lon="5.73358">
        <ele>794</ele>
        <time>2017-08-10T10:18:24Z</time>
      </trkpt>
      <trkpt lat="44.78371" lon="5.73357">
        <ele>794</ele>
        <time>2017-08-10T10:18:41Z</time>
      </trkpt>
      <trkpt lat="44.78415" lon="5.73363">
        <ele>795</ele>
        <time>2017-08-10T10:19:01Z</time>
      </trkpt>
      <trkpt lat="44.78463" lon="5.73378">
        <ele>791</ele>
        <time>2017-08-10T10:19:08Z</time>
      </trkpt>
      <trkpt lat="44.78474" lon="5.73383">
        <ele>791</ele>
        <time>2017-08-10T10:19:21Z</time>
      </trkpt>
      <trkpt lat="44.78516" lon="5.73407">
        <ele>786</ele>
        <time>2017-08-10T10:19:33Z</time>
      </trkpt>
      <trkpt lat="44.78545" lon="5.73431">
        <ele>788</ele>
        <time>2017-08-10T10:19:41Z</time>
      </trkpt>
      <trkpt lat="44.78559" lon="5.73438">
        <ele>786</ele>
        <time>2017-08-10T10:19:58Z</time>
      </trkpt>
      <trkpt lat="44.78603" lon="5.73439">
        <ele>779</ele>
        <time>2017-08-10T10:20:02Z</time>
      </trkpt>
      <trkpt lat="44.7862" lon="5.73436">
        <ele>778</ele>
        <time>2017-08-10T10:20:16Z</time>
      </trkpt>
      <trkpt lat="44.78631" lon="5.7343">
        <ele>777</ele>
        <time>2017-08-10T10:20:23Z</time>
      </trkpt>
      <trkpt lat="44.78641" lon="5.73422">
        <ele>776</ele>
        <time>2017-08-10T10:20:38Z</time>
      </trkpt>
      <trkpt lat="44.78651" lon="5.73409">
        <ele>774</ele>
        <time>2017-08-10T10:20:46Z</time>
      </trkpt>
      <trkpt lat="44.7867" lon="5.73365">
        <ele>770</ele>
        <time>2017-08-10T10:20:50Z</time>
      </trkpt>
      <trkpt lat="44.78688" lon="5.73333">
        <ele>770</ele>
        <time>2017-08-10T10:21:05Z</time>
      </trkpt>
      <trkpt lat="44.78702" lon="5.7331">
        <ele>769</ele>
        <time>2017-08-10T10:21:24Z</time>
      </trkpt>
      <trkpt lat="44.78712" lon="5.73287">
        <ele>769</ele>
        <time>2017-08-10T10:21:39Z</time>
      </trkpt>
      <trkpt lat="44.78719" lon="5.73271">
        <ele>768</ele>
        <time>2017-08-10T10:21:58Z</time>
      </trkpt>
      <trkpt lat="44.78726" lon="5.73262">
        <ele>768</ele>
        <time>2017-08-10T10:22:00Z</time>
      </trkpt>
      <trkpt lat="44.78731" lon="5.73259">
        <ele>768</ele>
        <time>2017-08-10T10:22:16Z</time>
      </trkpt>
      <trkpt lat="44.78741" lon="5.73256">
        <ele>767</ele>
        <time>2017-08-10T10:22:36Z</time>
      </trkpt>
      <trkpt lat="44.78821" lon="5.73251">
        <ele>760</ele>
        <time>2017-08-10T10:22:41Z</time>
      </trkpt>
      <trkpt lat="44.78875" lon="5.73248">
        <ele>759</ele>
        <time>2017-08-10T10:22:50Z</time>
      </trkpt>
      <trkpt lat="44.789" lon="5.7325">
        <ele>759</ele>
        <time>2017-08-10T10:23:09Z</time>
      </trkpt>
      <trkpt lat="44.78919" lon="5.73255">
        <ele>760</ele>
        <time>2017-08-10T10:23:16Z</time>
      </trkpt>
      <trkpt lat="44.78926" lon="5.73257">
        <ele>761</ele>
        <time>2017-08-10T10:23:21Z</time>
      </trkpt>
      <trkpt lat="44.78931" lon="5.73254">
        <ele>761</ele>
        <time>2017-08-10T10:23:37Z</time>
      </trkpt>
      <trkpt lat="44.78936" lon="5.73247">
        <ele>760</ele>
        <time>2017-08-10T10:23:46Z</time>
      </trkpt>
      <trkpt lat="44.7894" lon="5.73237">
        <ele>759</ele>
        <time>2017-08-10T10:23:57Z</time>
      </trkpt>
      <trkpt lat="44.78944" lon="5.73212">
        <ele>759</ele>
        <time>2017-08-10T10:24:10Z</time>
      </trkpt>
      <trkpt lat="44.78949" lon="5.73142">
        <ele>755</ele>
        <time>2017-08-10T10:24:25Z</time>
      </trkpt>
      <trkpt lat="44.78955" lon="5.73082">
        <ele>751</ele>
        <time>2017-08-10T10:24:41Z</time>
      </trkpt>
      <trkpt lat="44.78965" lon="5.73051">
        <ele>751</ele>
        <time>2017-08-10T10:24:43Z</time>
      </trkpt>
      <trkpt lat="44.7898" lon="5.73025">
        <ele>750</ele>
        <time>2017-08-10T10:25:00Z</time>
      </trkpt>
      <trkpt lat="44.79001" lon="5.73">
        <ele>746</ele>
        <time>2017-08-10T10:25:09Z</time>
      </trkpt>
      <trkpt lat="44.79033" lon="5.72977">
        <ele>745</ele>
        <time>2017-08-10T10:25:17Z</time>
      </trkpt>
      <trkpt lat="44.79048" lon="5.72968">
        <ele>744</ele>
        <time>2017-08-10T10:25:23Z</time>
      </trkpt>
      <trkpt lat="44.79059" lon="5.72965">
        <ele>744</ele>
        <time>2017-08-10T10:25:40Z</time>
      </trkpt>
      <trkpt lat="44.79068" lon="5.72965">
        <ele>744</ele>
        <time>2017-08-10T10:26:00Z</time>
      </trkpt>
      <trkpt lat="44.79079" lon="5.7297">
        <ele>744</ele>
        <time>2017-08-10T10:26:16Z</time>
      </trkpt>
      <trkpt lat="44.79112" lon="5.72985">
        <ele>742</ele>
        <time>2017-08-10T10:26:19Z</time>
      </trkpt>
      <trkpt lat="44.79129" lon="5.7299">
        <ele>741</ele>
        <time>2017-08-10T10:26:30Z</time>
      </trkpt>
      <trkpt lat="44.79139" lon="5.72994">
        <ele>740</ele>
        <time>2017-08-10T10:26:33Z</time>
      </trkpt>
      <trkpt lat="44.79151" lon="5.73006">
        <ele>741</ele>
        <time>2017-08-10T10:26:48Z</time>
      </trkpt>
      <trkpt lat="44.79161" lon="5.73027">
        <ele>742</ele>
        <time>2017-08-10T10:26:58Z</time>
      </trkpt>
      <trkpt lat="44.79176" lon="5.7305">
        <ele>743</ele>
        <time>2017-08-10T10:27:00Z</time>
      </trkpt>
      <trkpt lat="44.79184" lon="5.73057">
        <ele>744</ele>
        <time>2017-08-10T10:27:10Z</time>
      </trkpt>
      <trkpt lat="44.79195" lon="5.7306">
        <ele>744</ele>
        <time>2017-08-10T10:27:27Z</time>
      </trkpt>
      <trkpt lat="44.79204" lon="5.7306">
        <ele>745</ele>
        <time>2017-08-10T10:27:29Z</time>
      </trkpt>
      <trkpt lat="44.79212" lon="5.73058">
        <ele>745</ele>
        <time>2017-08-10T10:27:37Z</time>
      </trkpt>
      <trkpt lat="44.79221" lon="5.7305">
        <ele>745</ele>
        <time>2017-08-10T10:27:42Z</time>
      </trkpt>
      <trkpt lat="44.79234" lon="5.73032">
        <ele>745</ele>
        <time>2017-08-10T10:27:59Z</time>
      </trkpt>
      <trkpt lat="44.79258" lon="5.72997">
        <ele>744</ele>
        <time>2017-08-10T10:28:15Z</time>
      </trkpt>
      <trkpt lat="44.79279" lon="5.72979">
        <ele>747</ele>
        <time>2017-08-10T10:28:24Z</time>
      </trkpt>
      <trkpt lat="44.79287" lon="5.72971">
        <ele>748</ele>
        <time>2017-08-10T10:28:41Z</time>
      </trkpt>
      <trkpt lat="44.79293" lon="5.72963">
        <ele>749</ele>
        <time>2017-08-10T10:29:01Z</time>
      </trkpt>
      <trkpt lat="44.79307" lon="5.72934">
        <ele>749</ele>
        <time>2017-08-10T10:29:15Z</time>
      </trkpt>
      <trkpt lat="44.7934" lon="5.72866">
        <ele>750</ele>
        <time>2017-08-10T10:29:27Z</time>
      </trkpt>
      <trkpt lat="44.79353" lon="5.72843">
        <ele>749</ele>
        <time>2017-08-10T10:29:29Z</time>
      </trkpt>
      <trkpt lat="44.7936" lon="5.72835">
        <ele>749</ele>
        <time>2017-08-10T10:29:47Z</time>
      </trkpt>
      <trkpt lat="44.79368" lon="5.7283">
        <ele>743</ele>
        <time>2017-08-10T10:30:07Z</time>
      </trkpt>
      <trkpt lat="44.79394" lon="5.72828">
        <ele>746</ele>
        <time>2017-08-10T10:30:13Z</time>
      </trkpt>
      <trkpt lat="44.79405" lon="5.72827">
        <ele>748</ele>
        <time>2017-08-10T10:30:25Z</time>
      </trkpt>
      <trkpt lat="44.79421" lon="5.72822">
        <ele>749</ele>
        <time>2017-08-10T10:30:42Z</time>
      </trkpt>
      <trkpt lat="44.79461" lon="5.728">
        <ele>747</ele>
        <time>2017-08-10T10:30:55Z</time>
      </trkpt>
      <trkpt lat="44.79475" lon="5.72794">
        <ele>747</ele>
        <time>2017-08-10T10:30:58Z</time>
      </trkpt>
      <trkpt lat="44.79487" lon="5.72794">
        <ele>747</ele>
        <time>2017-08-10T10:31:06Z</time>
      </trkpt>
      <trkpt lat="44.795" lon="5.72798">
        <ele>748</ele>
        <time>2017-08-10T10:31:25Z</time>
      </trkpt>
      <trkpt lat="44.79509" lon="5.72806">
        <ele>749</ele>
        <time>2017-08-10T10:31:37Z</time>
      </trkpt>
      <trkpt lat="44.79526" lon="5.7283">
        <ele>749</ele>
        <time>2017-08-10T10:31:54Z</time>
      </trkpt>
      <trkpt lat="44.79575" lon="5.7291">
        <ele>751</ele>
        <time>2017-08-10T10:32:03Z</time>
      </trkpt>
      <trkpt lat="44.79587" lon="5.72923">
        <ele>751</ele>
        <time>2017-08-10T10:32:12Z</time>
      </trkpt>
      <trkpt lat="44.79594" lon="5.72948">
        <ele>752</ele>
        <time>2017-08-10T10:32:27Z</time>
      </trkpt>
      <trkpt lat="44.796" lon="5.7296">
        <ele>752</ele>
        <time>2017-08-10T10:32:36Z</time>
      </trkpt>
      <trkpt lat="44.79628" lon="5.72984">
        <ele>752</ele>
        <time>2017-08-10T10:32:47Z</time>
      </trkpt>
      <trkpt lat="44.79675" lon="5.73027">
        <ele>755</ele>
        <time>2017-08-10T10:33:02Z</time>
      </trkpt>
      <trkpt lat="44.79723" lon="5.73069">
        <ele>757</ele>
        <time>2017-08-10T10:33:10Z</time>
      </trkpt>
      <trkpt lat="44.79732" lon="5.7308">
        <ele>757</ele>
        <time>2017-08-10T10:33:21Z</time>
      </trkpt>
      <trkpt lat="44.79738" lon="5.73093">
        <ele>759</ele>
        <time>2017-08-10T10:33:35Z</time>
      </trkpt>
      <trkpt lat="44.79739" lon="5.73111">
        <ele>761</ele>
        <time>2017-08-10T10:33:45Z</time>
      </trkpt>
      <trkpt lat="44.79737" lon="5.73135">
        <ele>762</ele>
        <time>2017-08-10T10:34:05Z</time>
      </trkpt>
      <trkpt lat="44.79728" lon="5.73214">
        <ele>769</ele>
        <time>2017-08-10T10:34:07Z</time>
      </trkpt>
      <trkpt lat="44.79732" lon="5.73247">
        <ele>770</ele>
        <time>2017-08-10T10:34:27Z</time>
      </trkpt>
      <trkpt lat="44.79774" lon="5.734">
        <ele>782</ele>
        <time>2017-08-10T10:34:38Z</time>
      </trkpt>
      <trkpt lat="44.7978" lon="5.73428">
        <ele>788</ele>
        <time>2017-08-10T10:34:52Z</time>
      </trkpt>
      <trkpt lat="44.79781" lon="5.73469">
        <ele>790</ele>
        <time>2017-08-10T10:35:03Z</time>
      </trkpt>
      <trkpt lat="44.79782" lon="5.73486">
        <ele>791</ele>
        <time>2017-08-10T10:35:19Z</time>
      </trkpt>
      <trkpt lat="44.79786" lon="5.73496">
        <ele>791</ele>
        <time>2017-08-10T10:35:35Z</time>
      </trkpt>
      <trkpt lat="44.79792" lon="5.735">
        <ele>798</ele>
        <time>2017-08-10T10:35:47Z</time>
      </trkpt>
      <trkpt lat="44.79799" lon="5.735">
        <ele>798</ele>
        <time>2017-08-10T10:35:50Z</time>
      </trkpt>
      <trkpt lat="44.79808" lon="5.73496">
        <ele>792</ele>
        <time>2017-08-10T10:36:10Z</time>
      </trkpt>
      <trkpt lat="44.7982" lon="5.73484">
        <ele>792</ele>
        <time>2017-08-10T10:36:14Z</time>
      </trkpt>
      <trkpt lat="44.79834" lon="5.73471">
        <ele>793</ele>
        <time>2017-08-10T10:36:24Z</time>
      </trkpt>
      <trkpt lat="44.79852" lon="5.73459">
        <ele>793</ele>
        <time>2017-08-10T10:36:34Z</time>
      </trkpt>
      <trkpt lat="44.7988" lon="5.73446">
        <ele>794</ele>
        <time>2017-08-10T10:36:39Z</time>
      </trkpt>
      <trkpt lat="44.79939" lon="5.73436">
        <ele>802</ele>
        <time>2017-08-10T10:36:52Z</time>
      </trkpt>
      <trkpt lat="44.79968" lon="5.7342">
        <ele>805</ele>
        <time>2017-08-10T10:37:03Z</time>
      </trkpt>
      <trkpt lat="44.80002" lon="5.73399">
        <ele>806</ele>
        <time>2017-08-10T10:37:21Z</time>
      </trkpt>
      <trkpt lat="44.80025" lon="5.7339">
        <ele>805</ele>
        <time>2017-08-10T10:37:30Z</time>
      </trkpt>
      <trkpt lat="44.80041" lon="5.73388">
        <ele>805</ele>
        <time>2017-08-10T10:37:37Z</time>
      </trkpt>
      <trkpt lat="44.80056" lon="5.73391">
        <ele>805</ele>
        <time>2017-08-10T10:37:48Z</time>
      </trkpt>
      <trkpt lat="44.80069" lon="5.73394">
        <ele>806</ele>
        <time>2017-08-10T10:38:08Z</time>
      </trkpt>
      <trkpt lat="44.80106" lon="5.73416">
        <ele>806</ele>
        <time>2017-08-10T10:38:26Z</time>
      </trkpt>
      <trkpt lat="44.80196" lon="5.7347">
        <ele>810</ele>
        <time>2017-08-10T10:38:29Z</time>
      </trkpt>
      <trkpt lat="44.80294" lon="5.73531">
        <ele>805</ele>
        <time>2017-08-10T10:38:37Z</time>
      </trkpt>
      <trkpt lat="44.80313" lon="5.73533">
        <ele>804</ele>
        <time>2017-08-10T10:38:45Z</time>
      </trkpt>
      <trkpt lat="44.80335" lon="5.7352">
        <ele>799</ele>
        <time>2017-08-10T10:39:03Z</time>
      </trkpt>
      <trkpt lat="44.8037" lon="5.73487">
        <ele>800</ele>
        <time>2017-08-10T10:39:09Z</time>
      </trkpt>
      <trkpt lat="44.80411" lon="5.73449">
        <ele>801</ele>
        <time>2017-08-10T10:39:19Z</time>
      </trkpt>
      <trkpt lat="44.80453" lon="5.73414">
        <ele>796</ele>
        <time>2017-08-10T10:39:39Z</time>
      </trkpt>
      <trkpt lat="44.80477" lon="5.73395">
        <ele>793</ele>
        <time>2017-08-10T10:39:50Z</time>
      </trkpt>
      <trkpt lat="44.8049" lon="5.73372">
        <ele>793</ele>
        <time>2017-08-10T10:40:00Z</time>
      </trkpt>
      <trkpt lat="44.80495" lon="5.73364">
        <ele>792</ele>
        <time>2017-08-10T10:40:19Z</time>
      </trkpt>
      <trkpt lat="44.805" lon="5.73366">
        <ele>792</ele>
        <time>2017-08-10T10:40:37Z</time>
      </trkpt>
      <trkpt lat="44.80502" lon="5.73371">
        <ele>781</ele>
        <time>2017-08-10T10:40:51Z</time>
      </trkpt>
      <trkpt lat="44.80502" lon="5.73382">
        <ele>781</ele>
        <time>2017-08-10T10:41:02Z</time>
      </trkpt>
      <trkpt lat="44.80486" lon="5.7343">
        <ele>788</ele>
        <time>2017-08-10T10:41:09Z</time>
      </trkpt>
      <trkpt lat="44.80444" lon="5.73585">
        <ele>781</ele>
        <time>2017-08-10T10:41:18Z</time>
      </trkpt>
      <trkpt lat="44.80388" lon="5.73762">
        <ele>780</ele>
        <time>2017-08-10T10:41:38Z</time>
      </trkpt>
      <trkpt lat="44.80361" lon="5.73815">
        <ele>779</ele>
        <time>2017-08-10T10:41:42Z</time>
      </trkpt>
      <trkpt lat="44.80326" lon="5.73881">
        <ele>779</ele>
        <time>2017-08-10T10:41:59Z</time>
      </trkpt>
      <trkpt lat="44.80324" lon="5.73895">
        <ele>778</ele>
        <time>2017-08-10T10:42:15Z</time>
      </trkpt>
      <trkpt lat="44.80327" lon="5.73904">
        <ele>776</ele>
        <time>2017-08-10T10:42:29Z</time>
      </trkpt>
      <trkpt lat="44.80334" lon="5.73911">
        <ele>770</ele>
        <time>2017-08-10T10:42:38Z</time>
      </trkpt>
      <trkpt lat="44.80345" lon="5.73912">
        <ele>769</ele>
        <time>2017-08-10T10:42:58Z</time>
      </trkpt>
      <trkpt lat="44.80415" lon="5.73876">
        <ele>766</ele>
        <time>2017-08-10T10:43:04Z</time>
      </trkpt>
      <trkpt lat="44.80427" lon="5.7387">
        <ele>760</ele>
        <time>2017-08-10T10:43:06Z</time>
      </trkpt>
      <trkpt lat="44.80436" lon="5.7387">
        <ele>760</ele>
        <time>2017-08-10T10:43:11Z</time>
      </trkpt>
      <trkpt lat="44.80442" lon="5.73874">
        <ele>759</ele>
        <time>2017-08-10T10:43:16Z</time>
      </trkpt>
      <trkpt lat="44.80445" lon="5.73882">
        <ele>759</ele>
        <time>2017-08-10T10:43:25Z</time>
      </trkpt>
      <trkpt lat="44.80443" lon="5.73897">
        <ele>758</ele>
        <time>2017-08-10T10:43:36Z</time>
      </trkpt>
      <trkpt lat="44.80425" lon="5.73908">
        <ele>757</ele>
        <time>2017-08-10T10:43:49Z</time>
      </trkpt>
      <trkpt lat="44.8041" lon="5.73917">
        <ele>757</ele>
        <time>2017-08-10T10:44:01Z</time>
      </trkpt>
      <trkpt lat="44.80399" lon="5.73927">
        <ele>759</ele>
        <time>2017-08-10T10:44:12Z</time>
      </trkpt>
      <trkpt lat="44.80382" lon="5.73955">
        <ele>760</ele>
        <time>2017-08-10T10:44:30Z</time>
      </trkpt>
      <trkpt lat="44.80371" lon="5.73976">
        <ele>760</ele>
        <time>2017-08-10T10:44:32Z</time>
      </trkpt>
      <trkpt lat="44.80368" lon="5.73997">
        <ele>760</ele>
        <time>2017-08-10T10:44:40Z</time>
      </trkpt>
      <trkpt lat="44.80368" lon="5.74017">
        <ele>754</ele>
        <time>2017-08-10T10:44:53Z</time>
      </trkpt>
      <trkpt lat="44.80374" lon="5.74039">
        <ele>753</ele>
        <time>2017-08-10T10:45:04Z</time>
      </trkpt>
      <trkpt lat="44.80381" lon="5.74055">
        <ele>751</ele>
        <time>2017-08-10T10:45:22Z</time>
      </trkpt>
      <trkpt lat="44.80391" lon="5.74063">
        <ele>750</ele>
        <time>2017-08-10T10:45:26Z</time>
      </trkpt>
      <trkpt lat="44.804" lon="5.74069">
        <ele>749</ele>
        <time>2017-08-10T10:45:29Z</time>
      </trkpt>
      <trkpt lat="44.80409" lon="5.74071">
        <ele>748</ele>
        <time>2017-08-10T10:45:43Z</time>
      </trkpt>
      <trkpt lat="44.80421" lon="5.74072">
        <ele>744</ele>
        <time>2017-08-10T10:46:03Z</time>
      </trkpt>
      <trkpt lat="44.80432" lon="5.74069">
        <ele>744</ele>
        <time>2017-08-10T10:46:21Z</time>
      </trkpt>
      <trkpt lat="44.80464" lon="5.74038">
        <ele>744</ele>
        <time>2017-08-10T10:46:41Z</time>
      </trkpt>
      <trkpt lat="44.80514" lon="5.73978">
        <ele>743</ele>
        <time>2017-08-10T10:46:46Z</time>
      </trkpt>
      <trkpt lat="44.80522" lon="5.73975">
        <ele>742</ele>
        <time>2017-08-10T10:47:03Z</time>
      </trkpt>
      <trkpt lat="44.80529" lon="5.73977">
        <ele>742</ele>
        <time>2017-08-10T10:47:13Z</time>
      </trkpt>
      <trkpt lat="44.80533" lon="5.73983">
        <ele>741</ele>
        <time>2017-08-10T10:47:29Z</time>
      </trkpt>
      <trkpt lat="44.80536" lon="5.73995">
        <ele>741</ele>
        <time>2017-08-10T10:47:42Z</time>
      </trkpt>
      <trkpt lat="44.80534" lon="5.74003">
        <ele>737</ele>
        <time>2017-08-10T10:47:49Z</time>
      </trkpt>
      <trkpt lat="44.80525" lon="5.74018">
        <ele>738</ele>
        <time>2017-08-10T10:47:55Z</time>
      </trkpt>
      <trkpt lat="44.80488" lon="5.74067">
        <ele>741</ele>
        <time>2017-08-10T10:48:13Z</time>
      </trkpt>
      <trkpt lat="44.80484" lon="5.74073">
        <ele>741</ele>
        <time>2017-08-10T10:48:30Z</time>
      </trkpt>
      <trkpt lat="44.80481" lon="5.74083">
        <ele>741</ele>
        <time>2017-08-10T10:48:33Z</time>
      </trkpt>
      <trkpt lat="44.80481" lon="5.74093">
        <ele>737</ele>
        <time>2017-08-10T10:48:47Z</time>
      </trkpt>
      <trkpt lat="44.80484" lon="5.741">
        <ele>737</ele>
        <time>2017-08-10T10:49:03Z</time>
      </trkpt>
      <trkpt lat="44.80494" lon="5.74107">
        <ele>737</ele>
        <time>2017-08-10T10:49:22Z</time>
      </trkpt>
      <trkpt lat="44.80571" lon="5.74122">
        <ele>733</ele>
        <time>2017-08-10T10:49:39Z</time>
      </trkpt>
      <trkpt lat="44.80594" lon="5.74126">
        <ele>739</ele>
        <time>2017-08-10T10:49:42Z</time>
      </trkpt>
      <trkpt lat="44.80605" lon="5.74124">
        <ele>740</ele>
        <time>2017-08-10T10:49:59Z</time>
      </trkpt>
      <trkpt lat="44.80609" lon="5.74119">
        <ele>740</ele>
        <time>2017-08-10T10:50:08Z</time>
      </trkpt>
      <trkpt lat="44.80615" lon="5.74104">
        <ele>739</ele>
        <time>2017-08-10T10:50:13Z</time>
      </trkpt>
      <trkpt lat="44.80623" lon="5.74086">
        <ele>739</ele>
        <time>2017-08-10T10:50:33Z</time>
      </trkpt>
      <trkpt lat="44.80636" lon="5.74071">
        <ele>734</ele>
        <time>2017-08-10T10:50:38Z</time>
      </trkpt>
      <trkpt lat="44.8066" lon="5.74057">
        <ele>735</ele>
        <time>2017-08-10T10:50:50Z</time>
      </trkpt>
      <trkpt lat="44.80744" lon="5.74">
        <ele>736</ele>
        <time>2017-08-10T10:50:54Z</time>
      </trkpt>
      <trkpt lat="44.80766" lon="5.73986">
        <ele>733</ele>
        <time>2017-08-10T10:51:01Z</time>
      </trkpt>
      <trkpt lat="44.80772" lon="5.73985">
        <ele>733</ele>
        <time>2017-08-10T10:51:21Z</time>
      </trkpt>
      <trkpt lat="44.80805" lon="5.73986">
        <ele>735</ele>
        <time>2017-08-10T10:51:28Z</time>
      </trkpt>
      <trkpt lat="44.80872" lon="5.73998">
        <ele>741</ele>
        <time>2017-08-10T10:51:42Z</time>
      </trkpt>
      <trkpt lat="44.80919" lon="5.74003">
        <ele>747</ele>
        <time>2017-08-10T10:51:45Z</time>
      </trkpt>
      <trkpt lat="44.80943" lon="5.73998">
        <ele>748</ele>
        <time>2017-08-10T10:51:54Z</time>
      </trkpt>
      <trkpt lat="44.80955" lon="5.73982">
        <ele>749</ele>
        <time>2017-08-10T10:52:09Z</time>
      </trkpt>
      <trkpt lat="44.80959" lon="5.73959">
        <ele>748</ele>
        <time>2017-08-10T10:52:21Z</time>
      </trkpt>
      <trkpt lat="44.80964" lon="5.73903">
        <ele>745</ele>
        <time>2017-08-10T10:52:28Z</time>
      </trkpt>
      <trkpt lat="44.80967" lon="5.73891">
        <ele>745</ele>
        <time>2017-08-10T10:52:34Z</time>
      </trkpt>
      <trkpt lat="44.80974" lon="5.73885">
        <ele>746</ele>
        <time>2017-08-10T10:52:40Z</time>
      </trkpt>
      <trkpt lat="44.80985" lon="5.73886">
        <ele>747</ele>
        <time>2017-08-10T10:52:58Z</time>
      </trkpt>
      <trkpt lat="44.80996" lon="5.73899">
        <ele>749</ele>
        <time>2017-08-10T10:53:13Z</time>
      </trkpt>
      <trkpt lat="44.81001" lon="5.73952">
        <ele>756</ele>
        <time>2017-08-10T10:53:18Z</time>
      </trkpt>
      <trkpt lat="44.81002" lon="5.74026">
        <ele>759</ele>
        <time>2017-08-10T10:53:23Z</time>
      </trkpt>
      <trkpt lat="44.80992" lon="5.74059">
        <ele>758</ele>
        <time>2017-08-10T10:53:42Z</time>
      </trkpt>
      <trkpt lat="44.8099" lon="5.74076">
        <ele>760</ele>
        <time>2017-08-10T10:54:00Z</time>
      </trkpt>
      <trkpt lat="44.80991" lon="5.74088">
        <ele>763</ele>
        <time>2017-08-10T10:54:20Z</time>
      </trkpt>
      <trkpt lat="44.80994" lon="5.74095">
        <ele>763</ele>
        <time>2017-08-10T10:54:37Z</time>
      </trkpt>
      <trkpt lat="44.81003" lon="5.74104">
        <ele>763</ele>
        <time>2017-08-10T10:54:57Z</time>
      </trkpt>
      <trkpt lat="44.81017" lon="5.74108">
        <ele>763</ele>
        <time>2017-08-10T10:55:05Z</time>
      </trkpt>
      <trkpt lat="44.81047" lon="5.74117">
        <ele>763</ele>
        <time>2017-08-10T10:55:23Z</time>
      </trkpt>
      <trkpt lat="44.8106" lon="5.74122">
        <ele>763</ele>
        <time>2017-08-10T10:55:25Z</time>
      </trkpt>
      <trkpt lat="44.81096" lon="5.7414">
        <ele>759</ele>
        <time>2017-08-10T10:55:37Z</time>
      </trkpt>
      <trkpt lat="44.81102" lon="5.74143">
        <ele>759</ele>
        <time>2017-08-10T10:55:57Z</time>
      </trkpt>
      <trkpt lat="44.81114" lon="5.7416">
        <ele>759</ele>
        <time>2017-08-10T10:56:12Z</time>
      </trkpt>
      <trkpt lat="44.81122" lon="5.7418">
        <ele>758</ele>
        <time>2017-08-10T10:56:31Z</time>
      </trkpt>
      <trkpt lat="44.81131" lon="5.74218">
        <ele>758</ele>
        <time>2017-08-10T10:56:41Z</time>
      </trkpt>
      <trkpt lat="44.81139" lon="5.74251">
        <ele>757</ele>
        <time>2017-08-10T10:56:44Z</time>
      </trkpt>
      <trkpt lat="44.81144" lon="5.74262">
        <ele>757</ele>
        <time>2017-08-10T10:57:01Z</time>
      </trkpt>
      <trkpt lat="44.81149" lon="5.74267">
        <ele>757</ele>
        <time>2017-08-10T10:57:18Z</time>
      </trkpt>
      <trkpt lat="44.81156" lon="5.74269">
        <ele>757</ele>
        <time>2017-08-10T10:57:27Z</time>
      </trkpt>
      <trkpt lat="44.8116" lon="5.74268">
        <ele>757</ele>
        <time>2017-08-10T10:57:47Z</time>
      </trkpt>
      <trkpt lat="44.81163" lon="5.74264">
        <ele>756</ele>
        <time>2017-08-10T10:57:51Z</time>
      </trkpt>
      <trkpt lat="44.8117" lon="5.74249">
        <ele>754</ele>
        <time>2017-08-10T10:57:59Z</time>
      </trkpt>
      <trkpt lat="44.81183" lon="5.74187">
        <ele>752</ele>
        <time>2017-08-10T10:58:13Z</time>
      </trkpt>
      <trkpt lat="44.81189" lon="5.74166">
        <ele>751</ele>
        <time>2017-08-10T10:58:23Z</time>
      </trkpt>
      <trkpt lat="44.81195" lon="5.74152">
        <ele>750</ele>
        <time>2017-08-10T10:58:27Z</time>
      </trkpt>
      <trkpt lat="44.81205" lon="5.74142">
        <ele>750</ele>
        <time>2017-08-10T10:58:37Z</time>
      </trkpt>
      <trkpt lat="44.81215" lon="5.74136">
        <ele>749</ele>
        <time>2017-08-10T10:58:47Z</time>
      </trkpt>
      <trkpt lat="44.81229" lon="5.74135">
        <ele>748</ele>
        <time>2017-08-10T10:58:56Z</time>
      </trkpt>
      <trkpt lat="44.81235" lon="5.74138">
        <ele>748</ele>
        <time>2017-08-10T10:58:58Z</time>
      </trkpt>
      <trkpt lat="44.81244" lon="5.74143">
        <ele>748</ele>
        <time>2017-08-10T10:59:04Z</time>
      </trkpt>
      <trkpt lat="44.81254" lon="5.74156">
        <ele>745</ele>
        <time>2017-08-10T10:59:22Z</time>
      </trkpt>
      <trkpt lat="44.81265" lon="5.74179">
        <ele>746</ele>
        <time>2017-08-10T10:59:36Z</time>
      </trkpt>
      <trkpt lat="44.81272" lon="5.74203">
        <ele>746</ele>
        <time>2017-08-10T10:59:43Z</time>
      </trkpt>
      <trkpt lat="44.81279" lon="5.74227">
        <ele>746</ele>
        <time>2017-08-10T10:59:59Z</time>
      </trkpt>
      <trkpt lat="44.81284" lon="5.74242">
        <ele>746</ele>
        <time>2017-08-10T11:00:09Z</time>
      </trkpt>
      <trkpt lat="44.81288" lon="5.74245">
        <ele>746</ele>
        <time>2017-08-10T11:00:17Z</time>
      </trkpt>
      <trkpt lat="44.81297" lon="5.74244">
        <ele>746</ele>
        <time>2017-08-10T11:00:24Z</time>
      </trkpt>
      <trkpt lat="44.81302" lon="5.74254">
        <ele>748</ele>
        <time>2017-08-10T11:00:42Z</time>
      </trkpt>
      <trkpt lat="44.81323" lon="5.74278">
        <ele>748</ele>
        <time>2017-08-10T11:00:56Z</time>
      </trkpt>
      <trkpt lat="44.81353" lon="5.743">
        <ele>749</ele>
        <time>2017-08-10T11:01:12Z</time>
      </trkpt>
      <trkpt lat="44.8145" lon="5.7436">
        <ele>753</ele>
        <time>2017-08-10T11:01:20Z</time>
      </trkpt>
      <trkpt lat="44.8156" lon="5.74425">
        <ele>757</ele>
        <time>2017-08-10T11:01:30Z</time>
      </trkpt>
      <trkpt lat="44.81614" lon="5.74457">
        <ele>757</ele>
        <time>2017-08-10T11:01:49Z</time>
      </trkpt>
      <trkpt lat="44.8162" lon="5.74464">
        <ele>758</ele>
        <time>2017-08-10T11:01:53Z</time>
      </trkpt>
      <trkpt lat="44.81632" lon="5.74482">
        <ele>758</ele>
        <time>2017-08-10T11:02:03Z</time>
      </trkpt>
      <trkpt lat="44.81641" lon="5.74498">
        <ele>758</ele>
        <time>2017-08-10T11:02:17Z</time>
      </trkpt>
      <trkpt lat="44.81648" lon="5.746">
        <ele>764</ele>
        <time>2017-08-10T11:02:24Z</time>
      </trkpt>
      <trkpt lat="44.81657" lon="5.74709">
        <ele>767</ele>
        <time>2017-08-10T11:02:32Z</time>
      </trkpt>
      <trkpt lat="44.81665" lon="5.74777">
        <ele>769</ele>
        <time>2017-08-10T11:02:49Z</time>
      </trkpt>
      <trkpt lat="44.81667" lon="5.74794">
        <ele>767</ele>
        <time>2017-08-10T11:03:01Z</time>
      </trkpt>
      <trkpt lat="44.81668" lon="5.74808">
        <ele>767</ele>
        <time>2017-08-10T11:03:18Z</time>
      </trkpt>
      <trkpt lat="44.81653" lon="5.74811">
        <ele>769</ele>
        <time>2017-08-10T11:03:34Z</time>
      </trkpt>
      <trkpt lat="44.81615" lon="5.74814">
        <ele>770</ele>
        <time>2017-08-10T11:03:52Z</time>
      </trkpt>
      <trkpt lat="44.81597" lon="5.74814">
        <ele>770</ele>
        <time>2017-08-10T11:04:07Z</time>
      </trkpt>
      <trkpt lat="44.81588" lon="5.74816">
        <ele>770</ele>
        <time>2017-08-10T11:04:17Z</time>
      </trkpt>
      <trkpt lat="44.81566" lon="5.74828">
        <ele>770</ele>
        <time>2017-08-10T11:04:27Z</time>
      </trkpt>
      <trkpt lat="44.81542" lon="5.74842">
        <ele>770</ele>
        <time>2017-08-10T11:04:43Z</time>
      </trkpt>
      <trkpt lat="44.8153" lon="5.74851">
        <ele>769</ele>
        <time>2017-08-10T11:04:57Z</time>
      </trkpt>
      <trkpt lat="44.81515" lon="5.74863">
        <ele>769</ele>
        <time>2017-08-10T11:05:03Z</time>
      </trkpt>
      <trkpt lat="44.81509" lon="5.7487">
        <ele>769</ele>
        <time>2017-08-10T11:05:11Z</time>
      </trkpt>
      <trkpt lat="44.81482" lon="5.74907">
        <ele>769</ele>
        <time>2017-08-10T11:05:25Z</time>
      </trkpt>
    </trkseg>
  </trk>
</gpx>